Time,TemperatureF,DewpointF,PressureIn,WindDirection,WindDirectionDegrees,WindSpeedMPH,WindSpeedGustMPH,Humidity,HourlyPrecipIn,Conditions,Clouds,dailyrainin,SoftwareType,DateUTC
2013-03-15 00:01:00,33.4,19.8,29.15,South,180,4.6,4.6,57,0.00,CLR,,0.00,WeatherDisplay:10.37,2013-03-15 05:01:00,
2013-03-15 00:03:00,33.4,19.8,29.15,SSE,158,5.8,5.8,57,0.00,CLR,,0.00,WeatherDisplay:10.37,2013-03-15 05:03:00,
2013-03-15 00:04:00,33.4,19.8,29.15,South,180,7.1,7.1,57,0.00,CLR,,0.00,WeatherDisplay:10.37,2013-03-15 05:04:00,
2013-03-15 00:05:00,33.4,19.8,29.15,South,174,5.0,0.0,57,0.00,CLR,,0.00,WeatherDisplay:10.37,2013-03-15 05:05:00,
2013-03-15 00:07:00,33.6,20.0,29.15,South,180,6.9,6.9,57,0.00,CLR,,0.00,WeatherDisplay:10.37,2013-03-15 05:07:00,
2013-03-15 00:10:00,33.4,19.8,29.15,SSE,158,5.8,5.8,57,0.00,CLR,,0.00,WeatherDisplay:10.37,2013-03-15 05:10:00,
2013-03-15 00:12:00,33.4,20.2,29.15,SSE,158,4.6,4.6,58,0.00,CLR,,0.00,WeatherDisplay:10.37,2013-03-15 05:12:00,
2013-03-15 00:15:00,33.4,20.2,29.15,SSE,158,5.9,5.9,58,0.00,CLR,,0.00,WeatherDisplay:10.37,2013-03-15 05:15:00,
2013-03-15 00:18:00,33.4,20.2,29.15,South,180,4.6,4.6,58,0.00,CLR,,0.00,WeatherDisplay:10.37,2013-03-15 05:18:00,
2013-03-15 00:20:00,33.4,20.2,29.15,South,180,4.6,4.6,58,0.00,CLR,,0.00,WeatherDisplay:10.37,2013-03-15 05:20:00,
2013-03-15 00:23:00,33.4,20.2,29.15,SSE,158,4.6,4.6,58,0.00,CLR,,0.00,WeatherDisplay:10.37,2013-03-15 05:23:00,
2013-03-15 00:24:00,33.4,20.2,29.15,SSW,202,4.7,4.7,58,0.00,CLR,,0.00,WeatherDisplay:10.37,2013-03-15 05:24:00,
2013-03-15 00:28:00,33.4,20.2,29.15,South,180,3.6,3.6,58,0.00,CLR,,0.00,WeatherDisplay:10.37,2013-03-15 05:28:00,
2013-03-15 00:30:00,33.4,20.2,29.15,South,178,3.0,0.0,58,0.00,CLR,,0.00,WeatherDisplay:10.37,2013-03-15 05:30:00,
2013-03-15 00:31:00,33.4,20.2,29.15,SSW,202,4.6,4.6,58,0.00,CLR,,0.00,WeatherDisplay:10.37,2013-03-15 05:31:00,
2013-03-15 00:32:00,33.3,20.1,29.15,South,180,4.6,4.6,58,0.00,CLR,,0.00,WeatherDisplay:10.37,2013-03-15 05:32:00,
2013-03-15 00:36:00,33.3,20.1,29.15,South,180,3.8,3.8,58,0.00,CLR,,0.00,WeatherDisplay:10.37,2013-03-15 05:36:00,
2013-03-15 00:38:00,33.3,20.1,29.15,SSE,158,4.6,4.6,58,0.00,CLR,,0.00,WeatherDisplay:10.37,2013-03-15 05:38:00,
2013-03-15 00:39:00,33.3,20.1,29.15,South,180,3.1,3.1,58,0.00,CLR,,0.00,WeatherDisplay:10.37,2013-03-15 05:39:00,
2013-03-15 00:41:00,33.3,20.1,29.15,SSE,158,3.8,3.8,58,0.00,CLR,,0.00,WeatherDisplay:10.37,2013-03-15 05:41:00,
2013-03-15 00:45:00,33.3,20.1,29.12,SSW,202,4.6,4.6,58,0.00,CLR,,0.00,WeatherDisplay:10.37,2013-03-15 05:45:00,
2013-03-15 00:46:00,33.3,20.1,29.12,SSW,202,5.8,5.8,58,0.00,CLR,,0.00,WeatherDisplay:10.37,2013-03-15 05:46:00,
2013-03-15 00:47:00,33.3,20.5,29.12,SSW,202,4.6,4.6,59,0.00,CLR,,0.00,WeatherDisplay:10.37,2013-03-15 05:47:00,
2013-03-15 00:50:00,33.3,20.5,29.12,South,180,3.5,3.5,59,0.00,CLR,,0.00,WeatherDisplay:10.37,2013-03-15 05:50:00,
2013-03-15 00:51:00,33.3,20.5,29.12,SSW,202,5.8,5.8,59,0.00,CLR,,0.00,WeatherDisplay:10.37,2013-03-15 05:51:00,
2013-03-15 00:52:00,33.3,20.5,29.12,SSW,202,5.8,5.8,59,0.00,CLR,,0.00,WeatherDisplay:10.37,2013-03-15 05:52:00,
2013-03-15 00:53:00,33.3,20.5,29.12,South,180,4.6,4.6,59,0.00,CLR,,0.00,WeatherDisplay:10.37,2013-03-15 05:53:00,
2013-03-15 00:56:00,33.3,20.5,29.12,SSW,202,4.6,4.6,59,0.00,CLR,,0.00,WeatherDisplay:10.37,2013-03-15 05:56:00,
2013-03-15 00:57:00,33.3,20.5,29.15,SSW,202,5.8,5.8,59,0.00,CLR,,0.00,WeatherDisplay:10.37,2013-03-15 05:57:00,
2013-03-15 01:00:00,33.3,20.9,29.15,South,180,4.6,4.6,60,0.00,CLR,,0.00,WeatherDisplay:10.37,2013-03-15 06:00:00,
2013-03-15 01:01:00,33.3,20.9,29.15,South,180,4.6,4.6,60,0.00,CLR,,0.00,WeatherDisplay:10.37,2013-03-15 06:01:00,
2013-03-15 01:02:00,33.3,20.5,29.15,South,180,4.6,4.6,59,0.00,CLR,,0.00,WeatherDisplay:10.37,2013-03-15 06:02:00,
2013-03-15 01:04:00,33.3,20.5,29.15,South,180,4.6,4.6,59,0.00,CLR,,0.00,WeatherDisplay:10.37,2013-03-15 06:04:00,
2013-03-15 01:07:00,33.3,20.5,29.15,South,180,3.8,3.8,59,0.00,CLR,,0.00,WeatherDisplay:10.37,2013-03-15 06:07:00,
2013-03-15 01:08:00,33.3,20.5,29.15,South,180,4.6,4.6,59,0.00,CLR,,0.00,WeatherDisplay:10.37,2013-03-15 06:08:00,
2013-03-15 01:09:00,33.3,20.5,29.15,South,180,5.8,5.8,59,0.00,CLR,,0.00,WeatherDisplay:10.37,2013-03-15 06:09:00,
2013-03-15 01:10:00,33.3,20.5,29.15,South,184,3.0,0.0,59,0.00,CLR,,0.00,WeatherDisplay:10.37,2013-03-15 06:10:00,
2013-03-15 01:13:00,33.3,20.9,29.12,South,180,4.6,4.6,60,0.00,CLR,,0.00,WeatherDisplay:10.37,2013-03-15 06:13:00,
2013-03-15 01:14:00,33.3,20.9,29.12,SSW,202,4.6,4.6,60,0.00,CLR,,0.00,WeatherDisplay:10.37,2013-03-15 06:14:00,
2013-03-15 01:15:00,33.3,20.9,29.12,South,188,3.0,0.0,60,0.00,CLR,,0.00,WeatherDisplay:10.37,2013-03-15 06:15:00,
2013-03-15 01:19:00,33.3,20.9,29.12,South,180,3.5,3.5,60,0.00,CLR,,0.00,WeatherDisplay:10.37,2013-03-15 06:19:00,
2013-03-15 01:21:00,33.3,20.9,29.12,SSW,202,4.6,4.6,60,0.00,CLR,,0.00,WeatherDisplay:10.37,2013-03-15 06:21:00,
2013-03-15 01:22:00,33.3,20.9,29.12,South,180,4.6,4.6,60,0.00,CLR,,0.00,WeatherDisplay:10.37,2013-03-15 06:22:00,
2013-03-15 01:25:00,33.1,20.7,29.12,South,188,2.0,0.0,60,0.00,CLR,,0.00,WeatherDisplay:10.37,2013-03-15 06:25:00,
2013-03-15 01:27:00,33.1,20.7,29.12,SSW,202,3.5,3.5,60,0.00,CLR,,0.00,WeatherDisplay:10.37,2013-03-15 06:27:00,
2013-03-15 01:30:00,33.1,20.7,29.12,South,180,3.5,3.5,60,0.00,CLR,,0.00,WeatherDisplay:10.37,2013-03-15 06:30:00,
2013-03-15 01:31:00,33.1,20.7,29.12,South,180,3.5,3.5,60,0.00,CLR,,0.00,WeatherDisplay:10.37,2013-03-15 06:31:00,
2013-03-15 01:33:00,33.1,20.7,29.12,South,180,3.5,3.5,60,0.00,CLR,,0.00,WeatherDisplay:10.37,2013-03-15 06:33:00,
2013-03-15 01:35:00,33.1,20.7,29.12,South,184,3.0,0.0,60,0.00,CLR,,0.00,WeatherDisplay:10.37,2013-03-15 06:35:00,
2013-03-15 01:38:00,32.9,20.5,29.12,South,180,4.6,4.6,60,0.00,CLR,,0.00,WeatherDisplay:10.37,2013-03-15 06:38:00,
2013-03-15 01:39:00,32.9,20.5,29.12,SSW,202,4.6,4.6,60,0.00,CLR,,0.00,WeatherDisplay:10.37,2013-03-15 06:39:00,
2013-03-15 01:40:00,32.9,20.5,29.12,South,180,4.6,4.6,60,0.00,CLR,,0.00,WeatherDisplay:10.37,2013-03-15 06:40:00,
2013-03-15 01:41:00,32.7,20.4,29.12,SSW,202,3.5,3.5,60,0.00,CLR,,0.00,WeatherDisplay:10.37,2013-03-15 06:41:00,
2013-03-15 01:44:00,32.7,20.4,29.12,SSW,202,3.5,3.5,60,0.00,CLR,,0.00,WeatherDisplay:10.37,2013-03-15 06:44:00,
2013-03-15 01:45:00,32.7,20.4,29.12,South,180,3.5,3.5,60,0.00,CLR,,0.00,WeatherDisplay:10.37,2013-03-15 06:45:00,
2013-03-15 01:47:00,32.7,20.4,29.12,South,180,3.5,3.5,60,0.00,CLR,,0.00,WeatherDisplay:10.37,2013-03-15 06:47:00,
2013-03-15 01:49:00,32.7,20.4,29.12,South,180,4.6,4.6,60,0.00,CLR,,0.00,WeatherDisplay:10.37,2013-03-15 06:49:00,
2013-03-15 01:50:00,32.7,20.4,29.12,South,180,3.5,3.5,60,0.00,CLR,,0.00,WeatherDisplay:10.37,2013-03-15 06:50:00,
2013-03-15 01:52:00,32.5,20.2,29.12,South,180,4.6,4.6,60,0.00,CLR,,0.00,WeatherDisplay:10.37,2013-03-15 06:52:00,
2013-03-15 01:55:00,32.5,20.2,29.12,South,180,3.5,3.5,60,0.00,CLR,,0.00,WeatherDisplay:10.37,2013-03-15 06:55:00,
2013-03-15 01:57:00,32.5,20.2,29.12,South,180,3.5,3.5,60,0.00,CLR,,0.00,WeatherDisplay:10.37,2013-03-15 06:57:00,
2013-03-15 01:58:00,32.5,20.2,29.12,South,180,3.5,3.5,60,0.00,CLR,,0.00,WeatherDisplay:10.37,2013-03-15 06:58:00,
2013-03-15 02:00:00,32.4,20.0,29.12,South,181,2.0,0.0,60,0.00,CLR,,0.00,WeatherDisplay:10.37,2013-03-15 07:00:00,
2013-03-15 02:01:00,32.4,20.0,29.12,SSW,202,3.5,3.5,60,0.00,CLR,,0.00,WeatherDisplay:10.37,2013-03-15 07:01:00,
2013-03-15 02:03:00,32.4,20.0,29.12,South,180,3.5,3.5,60,0.00,CLR,,0.00,WeatherDisplay:10.37,2013-03-15 07:03:00,
2013-03-15 02:06:00,32.4,20.4,29.12,SSW,202,4.9,4.9,61,0.00,CLR,,0.00,WeatherDisplay:10.37,2013-03-15 07:06:00,
2013-03-15 02:08:00,32.4,20.4,29.12,South,180,4.6,4.6,61,0.00,CLR,,0.00,WeatherDisplay:10.37,2013-03-15 07:08:00,
2013-03-15 02:11:00,32.4,20.4,29.12,South,180,4.6,4.6,61,0.00,CLR,,0.00,WeatherDisplay:10.37,2013-03-15 07:11:00,
2013-03-15 02:13:00,32.2,20.2,29.12,SSW,202,3.5,3.5,61,0.00,CLR,,0.00,WeatherDisplay:10.37,2013-03-15 07:13:00,
2013-03-15 02:17:00,32.4,20.4,29.12,SSW,202,3.5,3.5,61,0.00,CLR,,0.00,WeatherDisplay:10.37,2013-03-15 07:17:00,
2013-03-15 02:20:00,32.4,20.4,29.12,South,180,6.0,6.0,61,0.00,CLR,,0.00,WeatherDisplay:10.37,2013-03-15 07:20:00,
2013-03-15 02:22:00,32.2,20.2,29.12,SSE,158,5.8,5.8,61,0.00,CLR,,0.00,WeatherDisplay:10.37,2013-03-15 07:22:00,
2013-03-15 02:25:00,32.2,20.2,29.12,South,185,3.0,0.0,61,0.00,CLR,,0.00,WeatherDisplay:10.37,2013-03-15 07:25:00,
2013-03-15 02:27:00,32.2,20.2,29.09,South,180,5.9,5.9,61,0.00,CLR,,0.00,WeatherDisplay:10.37,2013-03-15 07:27:00,
2013-03-15 02:30:00,32.4,20.8,29.09,South,180,4.6,4.6,62,0.00,CLR,,0.00,WeatherDisplay:10.37,2013-03-15 07:30:00,
2013-03-15 02:31:00,32.4,20.8,29.09,South,180,5.4,5.4,62,0.00,CLR,,0.00,WeatherDisplay:10.37,2013-03-15 07:31:00,
2013-03-15 02:33:00,32.4,20.8,29.09,South,180,5.8,5.8,62,0.00,CLR,,0.00,WeatherDisplay:10.37,2013-03-15 07:33:00,
2013-03-15 02:34:00,32.4,20.8,29.09,South,180,5.8,5.8,62,0.00,CLR,,0.00,WeatherDisplay:10.37,2013-03-15 07:34:00,
2013-03-15 02:35:00,32.4,20.8,29.09,SSE,158,6.4,6.4,62,0.00,CLR,,0.00,WeatherDisplay:10.37,2013-03-15 07:35:00,
2013-03-15 02:38:00,32.4,20.8,29.09,South,180,5.8,5.8,62,0.00,CLR,,0.00,WeatherDisplay:10.37,2013-03-15 07:38:00,
2013-03-15 02:39:00,32.4,20.8,29.09,South,180,5.8,5.8,62,0.00,CLR,,0.00,WeatherDisplay:10.37,2013-03-15 07:39:00,
2013-03-15 02:40:00,32.4,20.8,29.09,South,180,5.8,5.8,62,0.00,CLR,,0.00,WeatherDisplay:10.37,2013-03-15 07:40:00,
2013-03-15 02:43:00,32.4,20.8,29.09,South,180,5.8,5.8,62,0.00,CLR,,0.00,WeatherDisplay:10.37,2013-03-15 07:43:00,
2013-03-15 02:44:00,32.4,20.8,29.09,South,180,4.6,4.6,62,0.00,CLR,,0.00,WeatherDisplay:10.37,2013-03-15 07:44:00,
2013-03-15 02:45:00,32.4,20.8,29.09,South,180,4.6,4.6,62,0.00,CLR,,0.00,WeatherDisplay:10.37,2013-03-15 07:45:00,
2013-03-15 02:47:00,32.4,20.8,29.09,South,180,4.9,4.9,62,0.00,CLR,,0.00,WeatherDisplay:10.37,2013-03-15 07:47:00,
2013-03-15 02:49:00,32.4,20.8,29.09,SSE,158,5.8,5.8,62,0.00,CLR,,0.00,WeatherDisplay:10.37,2013-03-15 07:49:00,
2013-03-15 02:50:00,32.4,20.8,29.09,South,180,5.8,5.8,62,0.00,CLR,,0.00,WeatherDisplay:10.37,2013-03-15 07:50:00,
2013-03-15 02:52:00,32.2,20.6,29.09,South,180,4.6,4.6,62,0.00,CLR,,0.00,WeatherDisplay:10.37,2013-03-15 07:52:00,
2013-03-15 02:55:00,32.2,20.6,29.09,SSE,158,4.6,4.6,62,0.00,CLR,,0.00,WeatherDisplay:10.37,2013-03-15 07:55:00,
2013-03-15 02:56:00,32.2,20.6,29.09,SE,135,4.6,4.6,62,0.00,CLR,,0.00,WeatherDisplay:10.37,2013-03-15 07:56:00,
2013-03-15 02:57:00,32.2,20.6,29.09,South,180,4.6,4.6,62,0.00,CLR,,0.00,WeatherDisplay:10.37,2013-03-15 07:57:00,
2013-03-15 03:00:00,32.2,20.6,29.09,SSE,158,5.8,5.8,62,0.00,CLR,,0.00,WeatherDisplay:10.37,2013-03-15 08:00:00,
2013-03-15 03:03:00,32.2,20.6,29.09,South,180,5.8,5.8,62,0.00,CLR,,0.00,WeatherDisplay:10.37,2013-03-15 08:03:00,
2013-03-15 03:04:00,32.2,20.6,29.09,SSE,158,4.6,4.6,62,0.00,CLR,,0.00,WeatherDisplay:10.37,2013-03-15 08:04:00,
2013-03-15 03:08:00,32.2,21.0,29.09,SSE,158,4.6,4.6,63,0.00,CLR,,0.00,WeatherDisplay:10.37,2013-03-15 08:08:00,
2013-03-15 03:09:00,32.2,21.0,29.09,SSE,158,3.6,3.6,63,0.00,CLR,,0.00,WeatherDisplay:10.37,2013-03-15 08:09:00,
2013-03-15 03:11:00,32.0,20.8,29.09,SSE,158,4.6,4.6,63,0.00,CLR,,0.00,WeatherDisplay:10.37,2013-03-15 08:11:00,
2013-03-15 03:14:00,32.0,20.8,29.06,SSE,158,4.6,4.6,63,0.00,CLR,,0.00,WeatherDisplay:10.37,2013-03-15 08:14:00,
2013-03-15 03:16:00,32.0,20.8,29.06,South,180,3.5,3.5,63,0.00,CLR,,0.00,WeatherDisplay:10.37,2013-03-15 08:16:00,
2013-03-15 03:20:00,31.8,20.6,29.06,SSE,166,3.0,0.0,63,0.00,CLR,,0.00,WeatherDisplay:10.37,2013-03-15 08:20:00,
2013-03-15 03:21:00,31.8,20.6,29.06,SSE,158,3.8,3.8,63,0.00,CLR,,0.00,WeatherDisplay:10.37,2013-03-15 08:21:00,
2013-03-15 03:25:00,31.8,20.6,29.06,SSE,158,4.6,4.6,63,0.00,CLR,,0.00,WeatherDisplay:10.37,2013-03-15 08:25:00,
2013-03-15 03:26:00,31.8,20.6,29.06,SSE,158,4.6,4.6,63,0.00,CLR,,0.00,WeatherDisplay:10.37,2013-03-15 08:26:00,
2013-03-15 03:27:00,31.8,20.6,29.06,SSE,158,4.7,4.7,63,0.00,CLR,,0.00,WeatherDisplay:10.37,2013-03-15 08:27:00,
2013-03-15 03:28:00,31.8,20.6,29.06,South,180,4.6,4.6,63,0.00,CLR,,0.00,WeatherDisplay:10.37,2013-03-15 08:28:00,
2013-03-15 03:31:00,31.6,20.5,29.06,SSE,158,3.8,3.8,63,0.00,CLR,,0.00,WeatherDisplay:10.37,2013-03-15 08:31:00,
2013-03-15 03:32:00,31.6,20.5,29.06,SSE,158,5.8,5.8,63,0.00,CLR,,0.00,WeatherDisplay:10.37,2013-03-15 08:32:00,
2013-03-15 03:33:00,31.6,20.5,29.06,SSE,158,4.3,4.3,63,0.00,CLR,,0.00,WeatherDisplay:10.37,2013-03-15 08:33:00,
2013-03-15 03:34:00,31.6,20.5,29.06,SSE,158,4.6,4.6,63,0.00,CLR,,0.00,WeatherDisplay:10.37,2013-03-15 08:34:00,
2013-03-15 03:39:00,31.6,20.5,29.06,South,180,4.6,4.6,63,0.00,CLR,,0.00,WeatherDisplay:10.37,2013-03-15 08:39:00,
2013-03-15 03:40:00,31.6,20.5,29.06,SSE,168,3.0,0.0,63,0.00,CLR,,0.00,WeatherDisplay:10.37,2013-03-15 08:40:00,
2013-03-15 03:42:00,31.6,20.5,29.06,South,180,4.6,4.6,63,0.00,CLR,,0.00,WeatherDisplay:10.37,2013-03-15 08:42:00,
2013-03-15 03:44:00,31.6,20.5,29.06,South,180,4.6,4.6,63,0.00,CLR,,0.00,WeatherDisplay:10.37,2013-03-15 08:44:00,
2013-03-15 03:45:00,31.6,20.5,29.06,South,180,4.6,4.6,63,0.00,CLR,,0.00,WeatherDisplay:10.37,2013-03-15 08:45:00,
2013-03-15 03:47:00,31.6,20.8,29.06,SSE,158,3.6,3.6,64,0.00,CLR,,0.00,WeatherDisplay:10.37,2013-03-15 08:47:00,
2013-03-15 03:49:00,31.6,20.8,29.06,South,180,4.6,4.6,64,0.00,CLR,,0.00,WeatherDisplay:10.37,2013-03-15 08:49:00,
2013-03-15 03:50:00,31.6,20.8,29.06,South,173,3.0,0.0,64,0.00,CLR,,0.00,WeatherDisplay:10.37,2013-03-15 08:50:00,
2013-03-15 03:52:00,31.6,20.8,29.06,SSE,158,4.6,4.6,64,0.00,CLR,,0.00,WeatherDisplay:10.37,2013-03-15 08:52:00,
2013-03-15 03:54:00,31.6,20.8,29.06,South,180,4.6,4.6,64,0.00,CLR,,0.00,WeatherDisplay:10.37,2013-03-15 08:54:00,
2013-03-15 03:55:00,31.6,20.8,29.06,South,170,3.0,0.0,64,0.00,CLR,,0.00,WeatherDisplay:10.37,2013-03-15 08:55:00,
2013-03-15 03:58:00,31.6,20.8,29.06,SSE,158,4.6,4.6,64,0.00,CLR,,0.00,WeatherDisplay:10.37,2013-03-15 08:58:00,
2013-03-15 03:59:00,31.6,20.8,29.06,SSE,158,5.8,5.8,64,0.00,CLR,,0.00,WeatherDisplay:10.37,2013-03-15 08:59:00,
2013-03-15 04:03:00,31.6,20.8,29.06,SSE,158,3.5,3.5,64,0.00,CLR,,0.00,WeatherDisplay:10.37,2013-03-15 09:03:00,
2013-03-15 04:04:00,31.6,20.8,29.06,South,180,3.5,3.5,64,0.00,CLR,,0.00,WeatherDisplay:10.37,2013-03-15 09:04:00,
2013-03-15 04:05:00,31.6,20.8,29.06,South,180,3.5,3.5,64,0.00,CLR,,0.00,WeatherDisplay:10.37,2013-03-15 09:05:00,
2013-03-15 04:09:00,31.6,21.2,29.06,SSE,158,3.5,3.5,65,0.00,CLR,,0.00,WeatherDisplay:10.37,2013-03-15 09:09:00,
2013-03-15 04:10:00,31.5,21.0,29.06,SSE,158,3.5,3.5,65,0.00,CLR,,0.00,WeatherDisplay:10.37,2013-03-15 09:10:00,
2013-03-15 04:11:00,31.5,21.0,29.06,SSE,158,2.3,2.6,65,0.00,CLR,,0.00,WeatherDisplay:10.37,2013-03-15 09:11:00,
2013-03-15 04:15:00,31.5,21.0,29.03,SSE,160,2.0,0.0,65,0.00,CLR,,0.00,WeatherDisplay:10.37,2013-03-15 09:15:00,
2013-03-15 04:17:00,31.3,20.9,29.03,South,180,2.3,2.3,65,0.00,CLR,,0.00,WeatherDisplay:10.37,2013-03-15 09:17:00,
2013-03-15 04:18:00,31.3,20.9,29.03,SSW,202,2.3,2.3,65,0.00,CLR,,0.00,WeatherDisplay:10.37,2013-03-15 09:18:00,
2013-03-15 04:20:00,31.5,21.0,29.03,SSW,202,1.6,1.6,65,0.00,CLR,,0.00,WeatherDisplay:10.37,2013-03-15 09:20:00,
2013-03-15 04:22:00,31.5,21.4,29.03,South,180,3.5,3.5,66,0.00,CLR,,0.00,WeatherDisplay:10.37,2013-03-15 09:22:00,
2013-03-15 04:25:00,31.5,21.4,29.03,SSW,197,2.0,0.0,66,0.00,CLR,,0.00,WeatherDisplay:10.37,2013-03-15 09:25:00,
2013-03-15 04:27:00,31.5,21.4,29.03,SSW,202,4.6,4.6,66,0.00,CLR,,0.00,WeatherDisplay:10.37,2013-03-15 09:27:00,
2013-03-15 04:30:00,31.5,21.4,29.03,SSW,202,3.1,3.1,66,0.00,CLR,,0.00,WeatherDisplay:10.37,2013-03-15 09:30:00,
2013-03-15 04:31:00,31.5,21.4,29.03,SSW,202,3.5,3.5,66,0.00,CLR,,0.00,WeatherDisplay:10.37,2013-03-15 09:31:00,
2013-03-15 04:32:00,31.5,21.4,29.03,SSW,202,2.4,2.4,66,0.00,CLR,,0.00,WeatherDisplay:10.37,2013-03-15 09:32:00,
2013-03-15 04:35:00,31.5,21.4,29.03,SSW,196,2.0,0.0,66,0.00,CLR,,0.00,WeatherDisplay:10.37,2013-03-15 09:35:00,
2013-03-15 04:37:00,31.6,21.6,29.03,SSW,202,2.6,2.6,66,0.00,CLR,,0.00,WeatherDisplay:10.37,2013-03-15 09:37:00,
2013-03-15 04:40:00,31.6,21.6,29.03,SW,225,2.4,2.4,66,0.00,CLR,,0.00,WeatherDisplay:10.37,2013-03-15 09:40:00,
2013-03-15 04:41:00,31.6,21.9,29.03,South,180,2.4,2.6,67,0.00,CLR,,0.00,WeatherDisplay:10.37,2013-03-15 09:41:00,
2013-03-15 04:42:00,31.6,21.9,29.06,SSW,202,4.6,4.6,67,0.00,CLR,,0.00,WeatherDisplay:10.37,2013-03-15 09:42:00,
2013-03-15 04:45:00,31.8,22.1,29.06,SSW,202,2.9,2.9,67,0.00,CLR,,0.00,WeatherDisplay:10.37,2013-03-15 09:45:00,
2013-03-15 04:47:00,31.8,22.1,29.06,SSW,202,2.3,2.3,67,0.00,CLR,,0.00,WeatherDisplay:10.37,2013-03-15 09:47:00,
2013-03-15 04:49:00,31.8,22.1,29.06,SSW,202,2.3,2.3,67,0.00,CLR,,0.00,WeatherDisplay:10.37,2013-03-15 09:49:00,
2013-03-15 04:51:00,31.8,22.1,29.06,SSE,158,2.6,2.6,67,0.00,CLR,,0.00,WeatherDisplay:10.37,2013-03-15 09:51:00,
2013-03-15 04:54:00,32.0,22.3,29.06,SSW,202,2.4,2.4,67,0.00,CLR,,0.00,WeatherDisplay:10.37,2013-03-15 09:54:00,
2013-03-15 04:55:00,32.0,22.3,29.06,SSW,199,2.0,0.0,67,0.00,CLR,,0.00,WeatherDisplay:10.37,2013-03-15 09:55:00,
2013-03-15 04:56:00,32.0,22.3,29.06,SSW,202,4.6,4.6,67,0.00,CLR,,0.00,WeatherDisplay:10.37,2013-03-15 09:56:00,
2013-03-15 04:59:00,32.0,22.3,29.03,SSW,202,2.3,2.3,67,0.00,CLR,,0.00,WeatherDisplay:10.37,2013-03-15 09:59:00,
2013-03-15 05:01:00,32.0,22.3,29.03,SW,225,2.3,2.3,67,0.00,CLR,,0.00,WeatherDisplay:10.37,2013-03-15 10:01:00,
2013-03-15 05:02:00,32.0,22.3,29.03,SSW,202,3.5,3.5,67,0.00,CLR,,0.00,WeatherDisplay:10.37,2013-03-15 10:02:00,
2013-03-15 05:04:00,32.0,22.3,29.03,WSW,248,2.4,2.4,67,0.00,CLR,,0.00,WeatherDisplay:10.37,2013-03-15 10:04:00,
2013-03-15 05:06:00,32.0,22.6,29.03,WSW,248,3.1,3.1,68,0.00,CLR,,0.00,WeatherDisplay:10.37,2013-03-15 10:06:00,
2013-03-15 05:10:00,32.0,22.6,29.03,SSW,202,2.6,2.6,68,0.00,CLR,,0.00,WeatherDisplay:10.37,2013-03-15 10:10:00,
2013-03-15 05:11:00,32.0,22.6,29.03,WSW,248,2.3,2.3,68,0.00,CLR,,0.00,WeatherDisplay:10.37,2013-03-15 10:11:00,
2013-03-15 05:13:00,32.0,22.6,29.00,SW,225,2.3,2.3,68,0.00,CLR,,0.00,WeatherDisplay:10.37,2013-03-15 10:13:00,
2013-03-15 05:16:00,32.0,22.6,29.00,SW,225,2.3,2.3,68,0.00,CLR,,0.00,WeatherDisplay:10.37,2013-03-15 10:16:00,
2013-03-15 05:18:00,31.8,22.5,29.00,SW,225,2.3,2.3,68,0.00,CLR,,0.00,WeatherDisplay:10.37,2013-03-15 10:18:00,
2013-03-15 05:23:00,31.8,22.5,29.00,SSW,202,2.3,2.3,68,0.00,CLR,,0.00,WeatherDisplay:10.37,2013-03-15 10:23:00,
2013-03-15 05:25:00,31.8,22.5,29.00,SW,225,2.3,2.3,68,0.00,CLR,,0.00,WeatherDisplay:10.37,2013-03-15 10:25:00,
2013-03-15 05:27:00,31.8,22.5,29.03,SSW,202,1.1,1.1,68,0.00,CLR,,0.00,WeatherDisplay:10.37,2013-03-15 10:27:00,
2013-03-15 05:28:00,31.6,22.3,29.03,SSW,202,0.0,0.0,68,0.00,CLR,,0.00,WeatherDisplay:10.37,2013-03-15 10:28:00,
2013-03-15 05:30:00,31.6,22.3,29.03,SSW,202,0.0,0.0,68,0.00,CLR,,0.00,WeatherDisplay:10.37,2013-03-15 10:30:00,
2013-03-15 05:32:00,31.6,21.9,29.03,SW,225,0.0,0.0,67,0.00,CLR,,0.00,WeatherDisplay:10.37,2013-03-15 10:32:00,
2013-03-15 05:33:00,31.6,21.9,29.03,SW,225,0.0,0.0,67,0.00,CLR,,0.00,WeatherDisplay:10.37,2013-03-15 10:33:00,
2013-03-15 05:36:00,31.6,21.9,29.03,SW,225,1.1,1.1,67,0.00,CLR,,0.00,WeatherDisplay:10.37,2013-03-15 10:36:00,
2013-03-15 05:38:00,31.6,21.9,29.03,SSW,202,1.1,0.0,67,0.00,CLR,,0.00,WeatherDisplay:10.37,2013-03-15 10:38:00,
2013-03-15 05:40:00,31.6,21.9,29.03,SW,224,1.0,0.0,67,0.00,CLR,,0.00,WeatherDisplay:10.37,2013-03-15 10:40:00,
2013-03-15 05:43:00,31.5,21.8,29.03,SW,225,1.1,1.1,67,0.00,CLR,,0.00,WeatherDisplay:10.37,2013-03-15 10:43:00,
2013-03-15 05:45:00,31.3,21.6,29.03,SW,225,1.1,0.0,67,0.00,CLR,,0.00,WeatherDisplay:10.37,2013-03-15 10:45:00,
2013-03-15 05:46:00,31.3,21.6,29.03,SSW,202,1.6,0.0,67,0.00,CLR,,0.00,WeatherDisplay:10.37,2013-03-15 10:46:00,
2013-03-15 05:48:00,31.3,21.6,29.03,SSW,202,1.4,1.4,67,0.00,CLR,,0.00,WeatherDisplay:10.37,2013-03-15 10:48:00,
2013-03-15 05:49:00,31.3,21.6,29.03,SSW,202,2.4,2.4,67,0.00,CLR,,0.00,WeatherDisplay:10.37,2013-03-15 10:49:00,
2013-03-15 05:52:00,31.1,21.4,29.03,South,180,2.9,2.9,67,0.00,CLR,,0.00,WeatherDisplay:10.37,2013-03-15 10:52:00,
2013-03-15 05:53:00,31.1,21.4,29.03,SSW,202,2.3,2.3,67,0.00,CLR,,0.00,WeatherDisplay:10.37,2013-03-15 10:53:00,
2013-03-15 05:54:00,31.1,21.4,29.03,SSW,202,1.1,1.1,67,0.00,CLR,,0.00,WeatherDisplay:10.37,2013-03-15 10:54:00,
2013-03-15 05:55:00,31.1,21.4,29.03,SSW,198,1.0,0.0,67,0.00,CLR,,0.00,WeatherDisplay:10.37,2013-03-15 10:55:00,
2013-03-15 05:59:00,31.1,21.8,29.03,South,180,1.1,1.1,68,0.00,CLR,,0.00,WeatherDisplay:10.37,2013-03-15 10:59:00,
2013-03-15 06:00:00,31.1,21.8,29.03,SSW,192,1.0,0.0,68,0.00,CLR,,0.00,WeatherDisplay:10.37,2013-03-15 11:00:00,
2013-03-15 06:02:00,31.1,21.8,29.03,SSW,202,1.1,0.0,68,0.00,CLR,,0.00,WeatherDisplay:10.37,2013-03-15 11:02:00,
2013-03-15 06:04:00,31.1,21.8,29.03,SSW,202,0.0,0.0,68,0.00,CLR,,0.00,WeatherDisplay:10.37,2013-03-15 11:04:00,
2013-03-15 06:05:00,31.1,21.8,29.03,SSW,202,1.1,0.0,68,0.00,CLR,,0.00,WeatherDisplay:10.37,2013-03-15 11:05:00,
2013-03-15 06:07:00,31.1,21.8,29.03,SSW,202,0.0,0.0,68,0.00,CLR,,0.00,WeatherDisplay:10.37,2013-03-15 11:07:00,
2013-03-15 06:09:00,30.9,21.6,29.03,SSW,202,1.6,0.0,68,0.00,CLR,,0.00,WeatherDisplay:10.37,2013-03-15 11:09:00,
2013-03-15 06:10:00,30.9,21.6,29.03,SSW,201,0.0,0.0,68,0.00,CLR,,0.00,WeatherDisplay:10.37,2013-03-15 11:10:00,
2013-03-15 06:13:00,30.9,21.2,29.03,SSW,202,1.4,1.4,67,0.00,CLR,,0.00,WeatherDisplay:10.37,2013-03-15 11:13:00,
2013-03-15 06:15:00,30.9,21.2,29.03,SSW,202,1.4,1.4,67,0.00,CLR,,0.00,WeatherDisplay:10.37,2013-03-15 11:15:00,
2013-03-15 06:18:00,30.7,21.1,29.03,South,180,2.3,2.3,67,0.00,CLR,,0.00,WeatherDisplay:10.37,2013-03-15 11:18:00,
2013-03-15 06:20:00,30.7,21.1,29.03,South,180,3.5,3.5,67,0.00,CLR,,0.00,WeatherDisplay:10.37,2013-03-15 11:20:00,
2013-03-15 06:21:00,30.6,20.9,29.03,South,180,3.5,3.5,67,0.00,CLR,,0.00,WeatherDisplay:10.37,2013-03-15 11:21:00,
2013-03-15 06:24:00,30.6,20.9,29.03,SSW,202,2.9,2.9,67,0.00,CLR,,0.00,WeatherDisplay:10.37,2013-03-15 11:24:00,
2013-03-15 06:25:00,30.6,20.9,29.03,South,186,2.0,0.0,67,0.00,CLR,,0.00,WeatherDisplay:10.37,2013-03-15 11:25:00,
2013-03-15 06:26:00,30.6,20.9,29.03,South,180,2.3,2.3,67,0.00,CLR,,0.00,WeatherDisplay:10.37,2013-03-15 11:26:00,
2013-03-15 06:29:00,30.4,21.1,29.03,South,180,2.3,2.3,68,0.00,CLR,,0.00,WeatherDisplay:10.37,2013-03-15 11:29:00,
2013-03-15 06:30:00,30.4,21.1,29.03,South,182,2.0,0.0,68,0.00,CLR,,0.00,WeatherDisplay:10.37,2013-03-15 11:30:00,
2013-03-15 06:32:00,30.4,21.1,29.03,South,180,2.3,2.3,68,0.00,CLR,,0.00,WeatherDisplay:10.37,2013-03-15 11:32:00,
2013-03-15 06:34:00,30.4,21.1,29.03,SSW,202,1.1,1.1,68,0.00,CLR,,0.00,WeatherDisplay:10.37,2013-03-15 11:34:00,
2013-03-15 06:35:00,30.4,21.1,29.03,SSW,202,1.1,1.1,68,0.00,CLR,,0.00,WeatherDisplay:10.37,2013-03-15 11:35:00,
2013-03-15 06:37:00,30.4,21.1,29.03,SSW,202,1.1,1.1,68,0.00,CLR,,0.00,WeatherDisplay:10.37,2013-03-15 11:37:00,
2013-03-15 06:40:00,30.6,21.6,29.03,SSW,202,1.1,1.1,69,0.00,CLR,,0.00,WeatherDisplay:10.37,2013-03-15 11:40:00,
2013-03-15 06:45:00,30.6,21.6,29.03,SSW,202,0.0,0.0,69,0.00,CLR,,0.00,WeatherDisplay:10.37,2013-03-15 11:45:00,
2013-03-15 06:46:00,30.6,21.6,29.03,SW,225,1.1,0.0,69,0.00,CLR,,0.00,WeatherDisplay:10.37,2013-03-15 11:46:00,
2013-03-15 06:47:00,30.6,21.6,29.03,SW,225,1.1,0.0,69,0.00,CLR,,0.00,WeatherDisplay:10.37,2013-03-15 11:47:00,
2013-03-15 06:50:00,30.7,21.8,29.03,SW,225,1.4,1.4,69,0.00,CLR,,0.00,WeatherDisplay:10.37,2013-03-15 11:50:00,
2013-03-15 06:52:00,30.7,21.8,29.03,SW,225,1.1,0.0,69,0.00,CLR,,0.00,WeatherDisplay:10.37,2013-03-15 11:52:00,
2013-03-15 06:53:00,30.7,22.1,29.03,SSW,202,1.6,0.0,70,0.00,CLR,,0.00,WeatherDisplay:10.37,2013-03-15 11:53:00,
2013-03-15 06:56:00,30.7,22.1,29.03,SSW,202,2.3,2.3,70,0.00,CLR,,0.00,WeatherDisplay:10.37,2013-03-15 11:56:00,
2013-03-15 06:57:00,30.7,22.1,29.03,SSW,202,2.3,2.3,70,0.00,CLR,,0.00,WeatherDisplay:10.37,2013-03-15 11:57:00,
2013-03-15 06:59:00,30.9,22.3,29.00,South,180,2.6,2.6,70,0.00,CLR,,0.00,WeatherDisplay:10.37,2013-03-15 11:59:00,
2013-03-15 07:02:00,30.9,22.3,29.00,SSW,202,2.3,2.3,70,0.00,CLR,,0.00,WeatherDisplay:10.37,2013-03-15 12:02:00,
2013-03-15 07:03:00,30.9,22.3,29.00,South,180,2.3,2.3,70,0.00,CLR,,0.00,WeatherDisplay:10.37,2013-03-15 12:03:00,
2013-03-15 07:04:00,30.9,22.3,29.00,South,180,3.1,3.1,70,0.00,CLR,,0.00,WeatherDisplay:10.37,2013-03-15 12:04:00,
2013-03-15 07:09:00,31.1,22.5,29.00,SSW,202,2.3,2.3,70,0.00,CLR,,0.00,WeatherDisplay:10.37,2013-03-15 12:09:00,
2013-03-15 07:10:00,31.1,22.5,29.00,SSE,158,3.6,3.6,70,0.00,CLR,,0.00,WeatherDisplay:10.37,2013-03-15 12:10:00,
2013-03-15 07:11:00,31.1,22.5,29.00,SSW,202,3.5,3.5,70,0.00,CLR,,0.00,WeatherDisplay:10.37,2013-03-15 12:11:00,
2013-03-15 07:15:00,31.1,22.5,29.03,South,180,2.6,2.6,70,0.00,CLR,,0.00,WeatherDisplay:10.37,2013-03-15 12:15:00,
2013-03-15 07:16:00,31.1,22.5,29.03,South,180,3.5,3.5,70,0.00,CLR,,0.00,WeatherDisplay:10.37,2013-03-15 12:16:00,
2013-03-15 07:17:00,31.3,22.6,29.03,SSW,202,2.3,2.3,70,0.00,CLR,,0.00,WeatherDisplay:10.37,2013-03-15 12:17:00,
2013-03-15 07:21:00,31.5,23.1,29.03,SSW,202,3.5,3.5,71,0.00,CLR,,0.00,WeatherDisplay:10.37,2013-03-15 12:21:00,
2013-03-15 07:22:00,31.5,23.1,29.03,SSW,202,2.3,2.3,71,0.00,CLR,,0.00,WeatherDisplay:10.37,2013-03-15 12:22:00,
2013-03-15 07:26:00,31.6,23.3,29.03,SSW,202,2.3,2.3,71,0.00,CLR,,0.00,WeatherDisplay:10.37,2013-03-15 12:26:00,
2013-03-15 07:27:00,31.6,23.3,29.03,SSW,202,1.6,1.6,71,0.00,CLR,,0.00,WeatherDisplay:10.37,2013-03-15 12:27:00,
2013-03-15 07:28:00,31.8,23.5,29.03,South,180,3.5,3.5,71,0.00,CLR,,0.00,WeatherDisplay:10.37,2013-03-15 12:28:00,
2013-03-15 07:29:00,31.8,23.5,29.03,SSW,202,3.5,3.5,71,0.00,CLR,,0.00,WeatherDisplay:10.37,2013-03-15 12:29:00,
2013-03-15 07:33:00,32.0,23.7,29.03,SSW,202,3.5,3.5,71,0.00,CLR,,0.00,WeatherDisplay:10.37,2013-03-15 12:33:00,
2013-03-15 07:34:00,32.0,23.7,29.03,SSW,202,3.5,3.5,71,0.00,CLR,,0.00,WeatherDisplay:10.37,2013-03-15 12:34:00,
2013-03-15 07:35:00,32.0,23.7,29.03,SSW,202,3.5,3.5,71,0.00,CLR,,0.00,WeatherDisplay:10.37,2013-03-15 12:35:00,
2013-03-15 07:37:00,32.2,23.8,29.03,SSW,202,4.6,4.6,71,0.00,CLR,,0.00,WeatherDisplay:10.37,2013-03-15 12:37:00,
2013-03-15 07:39:00,32.2,23.8,29.03,SSW,202,2.3,2.3,71,0.00,CLR,,0.00,WeatherDisplay:10.37,2013-03-15 12:39:00,
2013-03-15 07:40:00,32.4,24.0,29.03,SSW,202,2.3,2.3,71,0.00,CLR,,0.00,WeatherDisplay:10.37,2013-03-15 12:40:00,
2013-03-15 07:41:00,32.4,24.0,29.03,SSW,202,2.4,2.4,71,0.00,CLR,,0.00,WeatherDisplay:10.37,2013-03-15 12:41:00,
2013-03-15 07:43:00,32.4,24.0,29.03,SSW,202,2.3,2.3,71,0.00,CLR,,0.00,WeatherDisplay:10.37,2013-03-15 12:43:00,
2013-03-15 07:45:00,32.5,24.2,29.03,South,180,2.3,2.3,71,0.00,CLR,,0.00,WeatherDisplay:10.37,2013-03-15 12:45:00,
2013-03-15 07:47:00,32.5,24.2,29.03,South,180,2.3,2.3,71,0.00,CLR,,0.00,WeatherDisplay:10.37,2013-03-15 12:47:00,
2013-03-15 07:48:00,32.5,24.2,29.03,South,180,2.3,2.3,71,0.00,CLR,,0.00,WeatherDisplay:10.37,2013-03-15 12:48:00,
2013-03-15 07:49:00,32.5,24.2,29.03,South,180,1.6,1.6,71,0.00,CLR,,0.00,WeatherDisplay:10.37,2013-03-15 12:49:00,
2013-03-15 07:52:00,32.7,24.3,29.03,South,180,2.3,2.3,71,0.00,CLR,,0.00,WeatherDisplay:10.37,2013-03-15 12:52:00,
2013-03-15 07:54:00,32.7,24.3,29.03,South,180,2.3,2.3,71,0.00,CLR,,0.00,WeatherDisplay:10.37,2013-03-15 12:54:00,
2013-03-15 07:55:00,32.9,24.5,29.03,South,180,0.0,0.0,71,0.00,CLR,,0.00,WeatherDisplay:10.37,2013-03-15 12:55:00,
2013-03-15 07:58:00,32.9,24.5,29.00,SW,225,0.0,0.0,71,0.00,CLR,,0.00,WeatherDisplay:10.37,2013-03-15 12:58:00,
2013-03-15 08:00:00,33.1,24.7,29.00,SSW,197,0.0,0.0,71,0.00,CLR,,0.00,WeatherDisplay:10.37,2013-03-15 13:00:00,
2013-03-15 08:01:00,33.1,24.7,29.00,WSW,248,0.0,0.0,71,0.00,CLR,,0.00,WeatherDisplay:10.37,2013-03-15 13:01:00,
2013-03-15 08:02:00,33.1,24.7,29.00,WSW,248,0.0,0.0,71,0.00,CLR,,0.00,WeatherDisplay:10.37,2013-03-15 13:02:00,
2013-03-15 08:03:00,33.1,24.7,29.00,WSW,248,0.0,0.0,71,0.00,CLR,,0.00,WeatherDisplay:10.37,2013-03-15 13:03:00,
2013-03-15 08:05:00,33.3,24.9,29.00,WSW,248,0.0,0.0,71,0.00,CLR,,0.00,WeatherDisplay:10.37,2013-03-15 13:05:00,
2013-03-15 08:07:00,33.3,24.9,29.00,SW,225,0.0,0.0,71,0.00,CLR,,0.00,WeatherDisplay:10.37,2013-03-15 13:07:00,
2013-03-15 08:09:00,33.3,24.9,29.00,SW,225,0.0,0.0,71,0.00,CLR,,0.00,WeatherDisplay:10.37,2013-03-15 13:09:00,
2013-03-15 08:10:00,33.3,24.5,29.00,SW,225,0.0,0.0,70,0.00,CLR,,0.00,WeatherDisplay:10.37,2013-03-15 13:10:00,
2013-03-15 08:11:00,33.3,24.5,29.00,SW,225,0.0,0.0,70,0.00,CLR,,0.00,WeatherDisplay:10.37,2013-03-15 13:11:00,
2013-03-15 08:12:00,33.3,24.5,29.00,SW,225,0.0,0.0,70,0.00,CLR,,0.00,WeatherDisplay:10.37,2013-03-15 13:12:00,
2013-03-15 08:14:00,33.3,24.5,29.03,SW,225,0.0,0.0,70,0.00,CLR,,0.00,WeatherDisplay:10.37,2013-03-15 13:14:00,
2013-03-15 08:15:00,33.4,24.7,29.03,SW,225,0.0,0.0,70,0.00,CLR,,0.00,WeatherDisplay:10.37,2013-03-15 13:15:00,
2013-03-15 08:17:00,33.4,24.7,29.03,SW,225,0.0,0.0,70,0.00,CLR,,0.00,WeatherDisplay:10.37,2013-03-15 13:17:00,
2013-03-15 08:19:00,33.6,24.9,29.03,SW,225,0.0,0.0,70,0.00,CLR,,0.00,WeatherDisplay:10.37,2013-03-15 13:19:00,
2013-03-15 08:20:00,33.6,24.9,29.03,SW,225,0.0,0.0,70,0.00,CLR,,0.00,WeatherDisplay:10.37,2013-03-15 13:20:00,
2013-03-15 08:22:00,33.8,25.0,29.03,SW,225,0.0,0.0,70,0.00,CLR,,0.00,WeatherDisplay:10.37,2013-03-15 13:22:00,
2013-03-15 08:24:00,34.0,25.2,29.03,WSW,248,1.4,0.0,70,0.00,CLR,,0.00,WeatherDisplay:10.37,2013-03-15 13:24:00,
2013-03-15 08:25:00,34.2,25.4,29.03,West,270,1.1,1.1,70,0.00,CLR,,0.00,WeatherDisplay:10.37,2013-03-15 13:25:00,
2013-03-15 08:27:00,34.3,25.6,29.03,WSW,248,1.6,1.6,70,0.00,CLR,,0.00,WeatherDisplay:10.37,2013-03-15 13:27:00,
2013-03-15 08:29:00,34.5,25.7,29.03,WSW,248,2.6,2.6,70,0.00,CLR,,0.00,WeatherDisplay:10.37,2013-03-15 13:29:00,
2013-03-15 08:30:00,34.7,25.9,29.03,WSW,248,2.6,2.6,70,0.00,CLR,,0.00,WeatherDisplay:10.37,2013-03-15 13:30:00,
2013-03-15 08:32:00,34.9,26.1,29.03,SW,225,3.1,3.1,70,0.00,CLR,,0.00,WeatherDisplay:10.37,2013-03-15 13:32:00,
2013-03-15 08:33:00,35.1,26.3,29.03,WSW,248,3.5,3.5,70,0.00,CLR,,0.00,WeatherDisplay:10.37,2013-03-15 13:33:00,
2013-03-15 08:34:00,35.1,26.3,29.03,West,270,3.5,3.5,70,0.00,CLR,,0.00,WeatherDisplay:10.37,2013-03-15 13:34:00,
2013-03-15 08:38:00,35.6,26.8,29.03,WNW,292,3.5,3.5,70,0.00,CLR,,0.00,WeatherDisplay:10.37,2013-03-15 13:38:00,
2013-03-15 08:39:00,35.6,26.8,29.03,WNW,292,3.5,3.5,70,0.00,CLR,,0.00,WeatherDisplay:10.37,2013-03-15 13:39:00,
2013-03-15 08:42:00,36.0,27.1,29.03,WNW,292,3.5,3.5,70,0.00,CLR,,0.00,WeatherDisplay:10.37,2013-03-15 13:42:00,
2013-03-15 08:44:00,36.3,27.1,29.03,West,270,2.3,2.3,69,0.00,CLR,,0.00,WeatherDisplay:10.37,2013-03-15 13:44:00,
2013-03-15 08:45:00,36.3,27.1,29.03,NW,315,2.3,2.3,69,0.00,CLR,,0.00,WeatherDisplay:10.37,2013-03-15 13:45:00,
2013-03-15 08:48:00,36.7,27.5,29.03,WSW,248,5.8,5.8,69,0.00,CLR,,0.00,WeatherDisplay:10.37,2013-03-15 13:48:00,
2013-03-15 08:50:00,36.9,27.3,29.03,WNW,292,2.3,2.3,68,0.00,CLR,,0.00,WeatherDisplay:10.37,2013-03-15 13:50:00,
2013-03-15 08:52:00,37.0,27.5,29.03,WNW,292,2.3,2.3,68,0.00,CLR,,0.00,WeatherDisplay:10.37,2013-03-15 13:52:00,
2013-03-15 08:53:00,37.2,27.6,29.03,SW,225,2.3,2.3,68,0.00,CLR,,0.00,WeatherDisplay:10.37,2013-03-15 13:53:00,
2013-03-15 08:56:00,37.6,27.6,29.03,WNW,292,3.5,3.5,67,0.00,CLR,,0.00,WeatherDisplay:10.37,2013-03-15 13:56:00,
2013-03-15 08:58:00,37.6,27.6,29.00,West,270,2.4,2.4,67,0.00,CLR,,0.00,WeatherDisplay:10.37,2013-03-15 13:58:00,
2013-03-15 09:00:00,38.1,28.1,29.00,WSW,248,2.6,2.6,67,0.00,CLR,,0.00,WeatherDisplay:10.37,2013-03-15 14:00:00,
2013-03-15 09:02:00,38.3,27.9,29.00,WNW,292,2.3,2.4,66,0.00,CLR,,0.00,WeatherDisplay:10.37,2013-03-15 14:02:00,
2013-03-15 09:04:00,38.5,28.1,29.00,WNW,292,2.3,2.3,66,0.00,CLR,,0.00,WeatherDisplay:10.37,2013-03-15 14:04:00,
2013-03-15 09:05:00,38.5,28.1,29.00,WNW,292,2.3,2.3,66,0.00,CLR,,0.00,WeatherDisplay:10.37,2013-03-15 14:05:00,
2013-03-15 09:07:00,38.7,27.9,29.00,WNW,292,2.3,2.3,65,0.00,CLR,,0.00,WeatherDisplay:10.37,2013-03-15 14:07:00,
2013-03-15 09:10:00,38.7,27.5,29.00,West,270,3.5,3.5,64,0.00,CLR,,0.00,WeatherDisplay:10.37,2013-03-15 14:10:00,
2013-03-15 09:11:00,38.8,27.7,29.00,WSW,248,3.6,3.6,64,0.00,CLR,,0.00,WeatherDisplay:10.37,2013-03-15 14:11:00,
2013-03-15 09:12:00,38.8,27.7,29.00,NW,315,3.5,3.5,64,0.00,CLR,,0.00,WeatherDisplay:10.37,2013-03-15 14:12:00,
2013-03-15 09:13:00,38.8,27.7,29.03,West,270,4.3,4.3,64,0.00,CLR,,0.00,WeatherDisplay:10.37,2013-03-15 14:13:00,
2013-03-15 09:15:00,39.0,27.5,29.03,West,270,3.5,3.5,63,0.00,CLR,,0.00,WeatherDisplay:10.37,2013-03-15 14:15:00,
2013-03-15 09:18:00,39.2,27.7,29.03,West,270,3.5,3.5,63,0.00,CLR,,0.00,WeatherDisplay:10.37,2013-03-15 14:18:00,
2013-03-15 09:20:00,39.4,27.8,29.03,WNW,292,3.5,3.5,63,0.00,CLR,,0.00,WeatherDisplay:10.37,2013-03-15 14:20:00,
2013-03-15 09:22:00,39.4,27.4,29.03,NW,315,3.5,3.5,62,0.00,CLR,,0.00,WeatherDisplay:10.37,2013-03-15 14:22:00,
2013-03-15 09:24:00,39.4,27.0,29.03,WSW,248,5.8,5.8,61,0.00,CLR,,0.00,WeatherDisplay:10.37,2013-03-15 14:24:00,
2013-03-15 09:25:00,39.6,27.2,29.03,NW,315,3.5,3.5,61,0.00,CLR,,0.00,WeatherDisplay:10.37,2013-03-15 14:25:00,
2013-03-15 09:29:00,39.9,27.5,29.03,WNW,292,4.6,4.6,61,0.00,CLR,,0.00,WeatherDisplay:10.37,2013-03-15 14:29:00,
2013-03-15 09:30:00,39.9,27.1,29.03,WNW,292,3.5,3.5,60,0.00,CLR,,0.00,WeatherDisplay:10.37,2013-03-15 14:30:00,
2013-03-15 09:33:00,40.1,26.9,29.03,NW,315,4.6,4.6,59,0.00,CLR,,0.00,WeatherDisplay:10.37,2013-03-15 14:33:00,
2013-03-15 09:34:00,40.1,26.5,29.03,WNW,292,4.6,4.6,58,0.00,CLR,,0.00,WeatherDisplay:10.37,2013-03-15 14:34:00,
2013-03-15 09:37:00,40.1,26.5,29.03,WNW,292,3.5,3.5,58,0.00,CLR,,0.00,WeatherDisplay:10.37,2013-03-15 14:37:00,
2013-03-15 09:38:00,40.3,26.2,29.03,West,270,2.3,2.3,57,0.00,CLR,,0.00,WeatherDisplay:10.37,2013-03-15 14:38:00,
2013-03-15 09:42:00,40.3,26.2,29.03,WSW,248,2.3,2.3,57,0.00,CLR,,0.00,WeatherDisplay:10.37,2013-03-15 14:42:00,
2013-03-15 09:44:00,40.3,26.2,29.03,WSW,248,2.3,2.3,57,0.00,CLR,,0.00,WeatherDisplay:10.37,2013-03-15 14:44:00,
2013-03-15 09:45:00,40.5,26.4,29.03,WSW,248,2.3,2.3,57,0.00,CLR,,0.00,WeatherDisplay:10.37,2013-03-15 14:45:00,
2013-03-15 09:47:00,40.6,26.6,29.03,West,270,1.1,1.4,57,0.00,CLR,,0.00,WeatherDisplay:10.37,2013-03-15 14:47:00,
2013-03-15 09:50:00,41.0,26.9,29.03,WNW,292,2.4,2.4,57,0.00,CLR,,0.00,WeatherDisplay:10.37,2013-03-15 14:50:00,
2013-03-15 09:52:00,41.0,26.5,29.03,West,270,2.3,2.3,56,0.00,CLR,,0.00,WeatherDisplay:10.37,2013-03-15 14:52:00,
2013-03-15 09:53:00,41.0,26.5,29.03,WNW,292,2.3,2.3,56,0.00,CLR,,0.00,WeatherDisplay:10.37,2013-03-15 14:53:00,
2013-03-15 09:57:00,41.2,26.2,29.03,West,270,2.3,2.3,55,0.00,CLR,,0.00,WeatherDisplay:10.37,2013-03-15 14:57:00,
2013-03-15 09:58:00,41.2,26.2,29.03,West,270,2.3,2.3,55,0.00,CLR,,0.00,WeatherDisplay:10.37,2013-03-15 14:58:00,
2013-03-15 10:00:00,41.5,26.6,29.03,NNW,338,2.3,2.3,55,0.00,CLR,,0.00,WeatherDisplay:10.37,2013-03-15 15:00:00,
2013-03-15 10:02:00,41.7,26.3,29.03,NNW,338,1.1,1.1,54,0.00,CLR,,0.00,WeatherDisplay:10.37,2013-03-15 15:02:00,
2013-03-15 10:03:00,41.7,25.8,29.03,SSW,202,0.9,0.0,53,0.00,CLR,,0.00,WeatherDisplay:10.37,2013-03-15 15:03:00,
2013-03-15 10:04:00,42.1,26.6,29.03,South,180,2.2,2.2,54,0.00,CLR,,0.00,WeatherDisplay:10.37,2013-03-15 15:04:00,
2013-03-15 10:05:00,42.3,27.2,29.03,SE,135,2.3,2.3,55,0.00,CLR,,0.00,WeatherDisplay:10.37,2013-03-15 15:05:00,
2013-03-15 10:09:00,42.4,26.5,29.03,ENE,68,2.3,2.3,53,0.00,CLR,,0.00,WeatherDisplay:10.37,2013-03-15 15:09:00,
2013-03-15 10:10:00,42.4,26.5,29.03,North,0,2.3,2.3,53,0.00,CLR,,0.00,WeatherDisplay:10.37,2013-03-15 15:10:00,
2013-03-15 10:14:00,42.6,26.2,29.00,NW,315,2.3,2.3,52,0.00,CLR,,0.00,WeatherDisplay:10.37,2013-03-15 15:14:00,
2013-03-15 10:15:00,42.5,25.6,29.00,NNE,31,1.0,0.0,51,0.00,CLR,,0.00,WeatherDisplay:10.37,2013-03-15 15:15:00,
2013-03-15 10:19:00,42.6,24.8,29.00,SSW,202,1.1,0.0,49,0.00,CLR,,0.00,WeatherDisplay:10.37,2013-03-15 15:19:00,
2013-03-15 10:21:00,43.0,25.6,29.00,ENE,68,2.3,2.3,50,0.00,CLR,,0.00,WeatherDisplay:10.37,2013-03-15 15:21:00,
2013-03-15 10:23:00,42.8,24.4,29.00,ENE,68,4.6,4.6,48,0.00,CLR,,0.00,WeatherDisplay:10.37,2013-03-15 15:23:00,
2013-03-15 10:24:00,42.8,23.4,29.00,ENE,68,4.6,4.6,46,0.00,CLR,,0.00,WeatherDisplay:10.37,2013-03-15 15:24:00,
2013-03-15 10:25:00,43.0,24.1,29.00,ESE,112,2.3,2.3,47,0.00,CLR,,0.00,WeatherDisplay:10.37,2013-03-15 15:25:00,
2013-03-15 10:26:00,43.0,25.1,29.00,SSE,158,2.3,2.3,49,0.00,CLR,,0.00,WeatherDisplay:10.37,2013-03-15 15:26:00,
2013-03-15 10:29:00,43.2,23.8,29.00,ENE,68,4.6,4.6,46,0.00,CLR,,0.00,WeatherDisplay:10.37,2013-03-15 15:29:00,
2013-03-15 10:30:00,43.2,23.8,29.00,East,81,3.0,0.0,46,0.00,CLR,,0.00,WeatherDisplay:10.37,2013-03-15 15:30:00,
2013-03-15 10:31:00,43.3,24.9,29.00,NE,45,4.6,4.6,48,0.00,CLR,,0.00,WeatherDisplay:10.37,2013-03-15 15:31:00,
2013-03-15 10:35:00,43.3,23.4,29.00,NE,45,2.3,2.4,45,0.00,CLR,,0.00,WeatherDisplay:10.37,2013-03-15 15:35:00,
2013-03-15 10:36:00,43.2,22.1,29.00,NNE,22,2.3,2.3,43,0.00,CLR,,0.00,WeatherDisplay:10.37,2013-03-15 15:36:00,
2013-03-15 10:38:00,43.3,22.3,29.00,ENE,68,1.1,1.4,43,0.00,CLR,,0.00,WeatherDisplay:10.37,2013-03-15 15:38:00,
2013-03-15 10:40:00,43.5,23.6,29.00,East,90,4.6,4.6,45,0.00,CLR,,0.00,WeatherDisplay:10.37,2013-03-15 15:40:00,
2013-03-15 10:42:00,43.7,23.2,29.00,NE,45,4.5,4.5,44,0.00,CLR,,0.00,WeatherDisplay:10.37,2013-03-15 15:42:00,
2013-03-15 10:43:00,43.7,22.6,29.00,East,90,4.6,4.6,43,0.00,CLR,,0.00,WeatherDisplay:10.37,2013-03-15 15:43:00,
2013-03-15 10:45:00,44.1,23.5,29.00,ENE,68,3.5,3.5,44,0.00,CLR,,0.00,WeatherDisplay:10.37,2013-03-15 15:45:00,
2013-03-15 10:47:00,44.1,23.5,29.00,ENE,68,3.5,3.5,44,0.00,CLR,,0.00,WeatherDisplay:10.37,2013-03-15 15:47:00,
2013-03-15 10:49:00,44.1,23.5,29.00,ENE,68,4.7,4.7,44,0.00,CLR,,0.00,WeatherDisplay:10.37,2013-03-15 15:49:00,
2013-03-15 10:52:00,43.9,21.7,29.00,East,90,3.5,3.5,41,0.00,CLR,,0.00,WeatherDisplay:10.37,2013-03-15 15:52:00,
2013-03-15 10:53:00,44.1,23.0,29.00,ESE,112,4.3,4.3,43,0.00,CLR,,0.00,WeatherDisplay:10.37,2013-03-15 15:53:00,
2013-03-15 10:54:00,44.1,23.0,29.00,ESE,112,4.6,4.6,43,0.00,CLR,,0.00,WeatherDisplay:10.37,2013-03-15 15:54:00,
2013-03-15 10:56:00,44.6,22.9,29.00,East,90,4.3,4.3,42,0.00,CLR,,0.00,WeatherDisplay:10.37,2013-03-15 15:56:00,
2013-03-15 10:57:00,44.6,22.9,28.94,East,90,6.0,6.0,42,0.00,CLR,,0.00,WeatherDisplay:10.37,2013-03-15 15:57:00,
2013-03-15 10:59:00,44.4,21.6,28.94,ENE,68,5.8,5.8,40,0.00,CLR,,0.00,WeatherDisplay:10.37,2013-03-15 15:59:00,
2013-03-15 11:00:00,44.4,21.6,28.94,East,93,5.0,0.0,40,0.00,CLR,,0.00,WeatherDisplay:10.37,2013-03-15 16:00:00,
2013-03-15 11:02:00,44.2,21.4,28.94,ENE,68,5.9,5.9,40,0.00,CLR,,0.00,WeatherDisplay:10.37,2013-03-15 16:02:00,
2013-03-15 11:05:00,44.2,21.4,28.94,East,80,3.0,0.0,40,0.00,CLR,,0.00,WeatherDisplay:10.37,2013-03-15 16:05:00,
2013-03-15 11:07:00,44.6,21.7,28.94,East,90,3.5,3.5,40,0.00,CLR,,0.00,WeatherDisplay:10.37,2013-03-15 16:07:00,
2013-03-15 11:08:00,45.0,22.6,28.94,NNE,22,2.4,2.4,41,0.00,CLR,,0.00,WeatherDisplay:10.37,2013-03-15 16:08:00,
2013-03-15 11:09:00,44.8,21.9,28.94,ENE,68,3.5,3.5,40,0.00,CLR,,0.00,WeatherDisplay:10.37,2013-03-15 16:09:00,
2013-03-15 11:13:00,45.1,22.2,28.97,NE,45,3.5,0.0,40,0.00,CLR,,0.00,WeatherDisplay:10.37,2013-03-15 16:13:00,
2013-03-15 11:14:00,45.1,22.2,28.97,ENE,68,2.3,0.0,40,0.00,CLR,,0.00,WeatherDisplay:10.37,2013-03-15 16:14:00,
2013-03-15 11:15:00,45.2,22.9,28.97,East,100,0.0,0.0,41,0.00,CLR,,0.00,WeatherDisplay:10.37,2013-03-15 16:15:00,
2013-03-15 11:19:00,45.5,21.3,28.97,North,0,3.5,3.5,38,0.00,CLR,,0.00,WeatherDisplay:10.37,2013-03-15 16:19:00,
2013-03-15 11:20:00,45.5,21.4,28.97,ENE,77,2.0,0.0,38,0.00,CLR,,0.00,WeatherDisplay:10.37,2013-03-15 16:20:00,
2013-03-15 11:21:00,45.9,22.9,28.97,NNW,338,2.3,2.3,40,0.00,CLR,,0.00,WeatherDisplay:10.37,2013-03-15 16:21:00,
2013-03-15 11:25:00,45.9,22.3,28.97,NE,41,3.0,0.0,39,0.00,CLR,,0.00,WeatherDisplay:10.37,2013-03-15 16:25:00,
2013-03-15 11:26:00,46.4,23.4,28.97,SE,135,3.5,3.5,40,0.00,CLR,,0.00,WeatherDisplay:10.37,2013-03-15 16:26:00,
2013-03-15 11:27:00,46.4,23.4,28.97,ESE,112,3.5,3.5,40,0.00,CLR,,0.00,WeatherDisplay:10.37,2013-03-15 16:27:00,
2013-03-15 11:30:00,46.5,22.2,28.97,East,93,2.0,0.0,38,0.00,CLR,,0.00,WeatherDisplay:10.37,2013-03-15 16:30:00,
2013-03-15 11:32:00,46.6,22.3,28.97,East,90,4.6,4.6,38,0.00,CLR,,0.00,WeatherDisplay:10.37,2013-03-15 16:32:00,
2013-03-15 11:34:00,46.6,22.3,28.97,NE,45,2.3,2.3,38,0.00,CLR,,0.00,WeatherDisplay:10.37,2013-03-15 16:34:00,
2013-03-15 11:35:00,46.8,22.5,28.97,SW,225,1.1,0.0,38,0.00,CLR,,0.00,WeatherDisplay:10.37,2013-03-15 16:35:00,
2013-03-15 11:37:00,46.8,22.5,28.97,NNE,22,3.8,0.0,38,0.00,CLR,,0.00,WeatherDisplay:10.37,2013-03-15 16:37:00,
2013-03-15 11:39:00,46.6,22.3,28.97,NNE,22,3.5,3.5,38,0.00,CLR,,0.00,WeatherDisplay:10.37,2013-03-15 16:39:00,
2013-03-15 11:40:00,46.6,22.3,28.97,NE,56,2.0,0.0,38,0.00,CLR,,0.00,WeatherDisplay:10.37,2013-03-15 16:40:00,
2013-03-15 11:45:00,47.1,23.4,28.97,WSW,248,1.1,1.1,39,0.00,CLR,,0.00,WeatherDisplay:10.37,2013-03-15 16:45:00,
2013-03-15 11:48:00,47.5,23.7,28.97,NNW,338,3.6,3.6,39,0.00,CLR,,0.00,WeatherDisplay:10.37,2013-03-15 16:48:00,
2013-03-15 11:51:00,48.2,24.4,28.97,North,0,2.3,2.4,39,0.00,CLR,,0.00,WeatherDisplay:10.37,2013-03-15 16:51:00,
2013-03-15 11:52:00,48.4,24.5,28.97,NNE,22,3.5,3.5,39,0.00,CLR,,0.00,WeatherDisplay:10.37,2013-03-15 16:52:00,
2013-03-15 11:53:00,48.4,24.5,28.97,NNE,22,2.3,2.3,39,0.00,CLR,,0.00,WeatherDisplay:10.37,2013-03-15 16:53:00,
2013-03-15 11:56:00,48.4,24.5,28.97,NW,315,2.3,2.3,39,0.00,CLR,,0.00,WeatherDisplay:10.37,2013-03-15 16:56:00,
2013-03-15 11:57:00,48.7,24.9,28.97,NW,315,2.3,2.3,39,0.00,CLR,,0.00,WeatherDisplay:10.37,2013-03-15 16:57:00,
2013-03-15 11:59:00,48.7,24.9,28.97,NW,315,3.6,3.6,39,0.00,CLR,,0.00,WeatherDisplay:10.37,2013-03-15 16:59:00,
2013-03-15 12:01:00,48.7,23.6,28.97,NW,315,3.8,3.8,37,0.00,CLR,,0.00,WeatherDisplay:10.37,2013-03-15 17:01:00,
2013-03-15 12:02:00,48.7,23.6,28.97,WNW,292,4.0,4.0,37,0.00,CLR,,0.00,WeatherDisplay:10.37,2013-03-15 17:02:00,
2013-03-15 12:05:00,48.9,23.7,28.97,WNW,300,3.0,0.0,37,0.00,CLR,,0.00,WeatherDisplay:10.37,2013-03-15 17:05:00,
2013-03-15 12:07:00,49.1,24.6,28.97,WNW,292,5.8,5.8,38,0.00,CLR,,0.00,WeatherDisplay:10.37,2013-03-15 17:07:00,
2013-03-15 12:09:00,49.1,23.9,28.97,NW,315,6.9,6.9,37,0.00,CLR,,0.00,WeatherDisplay:10.37,2013-03-15 17:09:00,
2013-03-15 12:10:00,49.1,23.9,28.97,NW,315,4.9,4.9,37,0.00,CLR,,0.00,WeatherDisplay:10.37,2013-03-15 17:10:00,
2013-03-15 12:11:00,49.3,24.1,28.97,NW,315,4.6,4.6,37,0.00,CLR,,0.00,WeatherDisplay:10.37,2013-03-15 17:11:00,
2013-03-15 12:14:00,49.5,24.2,28.97,WNW,292,5.8,5.8,37,0.00,CLR,,0.00,WeatherDisplay:10.37,2013-03-15 17:14:00,
2013-03-15 12:15:00,49.5,24.2,28.97,WNW,292,5.4,5.4,37,0.00,CLR,,0.00,WeatherDisplay:10.37,2013-03-15 17:15:00,
2013-03-15 12:16:00,49.5,24.2,28.97,NW,315,5.8,5.8,37,0.00,CLR,,0.00,WeatherDisplay:10.37,2013-03-15 17:16:00,
2013-03-15 12:20:00,49.6,25.0,28.97,NW,324,2.0,0.0,38,0.00,CLR,,0.00,WeatherDisplay:10.37,2013-03-15 17:20:00,
2013-03-15 12:21:00,49.6,25.0,28.97,NNW,338,2.3,2.3,38,0.00,CLR,,0.00,WeatherDisplay:10.37,2013-03-15 17:21:00,
2013-03-15 12:25:00,49.8,24.6,28.97,NW,311,3.0,0.0,37,0.00,CLR,,0.00,WeatherDisplay:10.37,2013-03-15 17:25:00,
2013-03-15 12:26:00,50.0,24.7,28.97,WNW,292,4.6,4.6,37,0.00,CLR,,0.00,WeatherDisplay:10.37,2013-03-15 17:26:00,
2013-03-15 12:28:00,50.0,24.1,28.97,WNW,292,4.6,4.6,36,0.00,CLR,,0.00,WeatherDisplay:10.37,2013-03-15 17:28:00,
2013-03-15 12:30:00,50.2,24.2,28.97,WNW,285,3.0,0.0,36,0.00,CLR,,0.00,WeatherDisplay:10.37,2013-03-15 17:30:00,
2013-03-15 12:31:00,50.2,23.5,28.97,East,90,3.5,3.5,35,0.00,CLR,,0.00,WeatherDisplay:10.37,2013-03-15 17:31:00,
2013-03-15 12:33:00,50.2,23.5,28.97,NNW,338,5.8,5.8,35,0.00,CLR,,0.00,WeatherDisplay:10.37,2013-03-15 17:33:00,
2013-03-15 12:34:00,50.5,25.2,28.97,NW,315,4.6,4.6,37,0.00,CLR,,0.00,WeatherDisplay:10.37,2013-03-15 17:34:00,
2013-03-15 12:35:00,50.5,25.2,28.97,NW,304,3.0,0.0,37,0.00,CLR,,0.00,WeatherDisplay:10.37,2013-03-15 17:35:00,
2013-03-15 12:37:00,50.9,24.9,28.97,WNW,292,4.6,4.6,36,0.00,CLR,,0.00,WeatherDisplay:10.37,2013-03-15 17:37:00,
2013-03-15 12:38:00,50.9,24.9,28.97,NNW,338,4.6,4.6,36,0.00,CLR,,0.00,WeatherDisplay:10.37,2013-03-15 17:38:00,
2013-03-15 12:42:00,50.7,22.6,28.97,West,270,5.8,5.8,33,0.00,CLR,,0.00,WeatherDisplay:10.37,2013-03-15 17:42:00,
2013-03-15 12:43:00,50.9,23.5,28.97,WSW,248,5.8,5.8,34,0.00,CLR,,0.00,WeatherDisplay:10.37,2013-03-15 17:43:00,
2013-03-15 12:45:00,50.9,24.2,28.97,WNW,293,3.0,0.0,35,0.00,CLR,,0.00,WeatherDisplay:10.37,2013-03-15 17:45:00,
2013-03-15 12:48:00,51.4,25.3,28.97,NNW,338,3.5,3.5,36,0.00,CLR,,0.00,WeatherDisplay:10.37,2013-03-15 17:48:00,
2013-03-15 12:49:00,51.6,25.5,28.97,WNW,292,4.6,4.6,36,0.00,CLR,,0.00,WeatherDisplay:10.37,2013-03-15 17:49:00,
2013-03-15 12:51:00,51.4,23.3,28.97,WNW,292,3.5,3.5,33,0.00,CLR,,0.00,WeatherDisplay:10.37,2013-03-15 17:51:00,
2013-03-15 12:52:00,51.4,23.3,28.97,WNW,292,3.1,3.1,33,0.00,CLR,,0.00,WeatherDisplay:10.37,2013-03-15 17:52:00,
2013-03-15 12:54:00,51.8,24.3,28.97,NW,315,2.3,2.3,34,0.00,CLR,,0.00,WeatherDisplay:10.37,2013-03-15 17:54:00,
2013-03-15 12:57:00,52.0,23.0,28.97,NNE,22,2.3,0.0,32,0.00,CLR,,0.00,WeatherDisplay:10.37,2013-03-15 17:57:00,
2013-03-15 12:58:00,52.3,24.8,28.97,East,90,2.3,2.3,34,0.00,CLR,,0.00,WeatherDisplay:10.37,2013-03-15 17:58:00,
2013-03-15 13:00:00,52.3,25.5,28.97,NW,312,1.0,0.0,35,0.00,CLR,,0.00,WeatherDisplay:10.37,2013-03-15 18:00:00,
2013-03-15 13:03:00,52.7,25.1,28.97,South,180,3.1,3.1,34,0.00,CLR,,0.00,WeatherDisplay:10.37,2013-03-15 18:03:00,
2013-03-15 13:05:00,52.8,25.9,28.97,ESE,114,2.0,0.0,35,0.00,CLR,,0.00,WeatherDisplay:10.37,2013-03-15 18:05:00,
2013-03-15 13:07:00,52.2,22.4,28.97,ESE,112,4.6,4.6,31,0.00,CLR,,0.00,WeatherDisplay:10.37,2013-03-15 18:07:00,
2013-03-15 13:08:00,52.3,24.0,28.97,NE,45,3.5,3.5,33,0.00,CLR,,0.00,WeatherDisplay:10.37,2013-03-15 18:08:00,
2013-03-15 13:10:00,52.3,24.0,28.97,ESE,103,2.0,0.0,33,0.00,CLR,,0.00,WeatherDisplay:10.37,2013-03-15 18:10:00,
2013-03-15 13:12:00,52.5,24.9,28.94,NE,45,3.5,3.5,34,0.00,CLR,,0.00,WeatherDisplay:10.37,2013-03-15 18:12:00,
2013-03-15 13:13:00,52.5,24.2,28.94,NNE,22,3.8,3.8,33,0.00,CLR,,0.00,WeatherDisplay:10.37,2013-03-15 18:13:00,
2013-03-15 13:15:00,52.5,24.2,28.94,ENE,66,2.0,0.0,33,0.00,CLR,,0.00,WeatherDisplay:10.37,2013-03-15 18:15:00,
2013-03-15 13:16:00,52.5,24.2,28.94,ENE,68,4.6,4.6,33,0.00,CLR,,0.00,WeatherDisplay:10.37,2013-03-15 18:16:00,
2013-03-15 13:18:00,52.7,25.1,28.94,SE,135,2.9,0.0,34,0.00,CLR,,0.00,WeatherDisplay:10.37,2013-03-15 18:18:00,
2013-03-15 13:19:00,52.7,24.4,28.94,ESE,112,4.7,0.0,33,0.00,CLR,,0.00,WeatherDisplay:10.37,2013-03-15 18:19:00,
2013-03-15 13:21:00,53.1,26.1,28.94,SSE,158,5.8,5.8,35,0.00,CLR,,0.00,WeatherDisplay:10.37,2013-03-15 18:21:00,
2013-03-15 13:23:00,53.1,24.7,28.94,ENE,68,4.0,4.0,33,0.00,CLR,,0.00,WeatherDisplay:10.37,2013-03-15 18:23:00,
2013-03-15 13:24:00,53.1,24.7,28.94,ESE,112,4.7,4.7,33,0.00,CLR,,0.00,WeatherDisplay:10.37,2013-03-15 18:24:00,
2013-03-15 13:26:00,53.4,25.0,28.94,SE,135,9.2,9.2,33,0.00,CLR,,0.00,WeatherDisplay:10.37,2013-03-15 18:26:00,
2013-03-15 13:28:00,53.8,26.0,28.88,SE,135,5.9,5.9,34,0.00,CLR,,0.00,WeatherDisplay:10.37,2013-03-15 18:28:00,
2013-03-15 13:32:00,54.1,25.6,28.88,SSE,158,5.9,5.9,33,0.00,CLR,,0.00,WeatherDisplay:10.37,2013-03-15 18:32:00,
2013-03-15 13:34:00,54.1,26.4,28.88,SSE,158,4.6,4.6,34,0.00,CLR,,0.00,WeatherDisplay:10.37,2013-03-15 18:34:00,
2013-03-15 13:35:00,54.2,26.4,28.88,SSE,152,3.0,0.0,34,0.00,CLR,,0.00,WeatherDisplay:10.37,2013-03-15 18:35:00,
2013-03-15 13:38:00,54.3,25.8,28.88,SSE,158,5.6,5.6,33,0.00,CLR,,0.00,WeatherDisplay:10.37,2013-03-15 18:38:00,
2013-03-15 13:40:00,54.5,26.7,28.88,SSE,149,5.0,0.0,34,0.00,CLR,,0.00,WeatherDisplay:10.37,2013-03-15 18:40:00,
2013-03-15 13:42:00,54.5,26.0,28.91,SSE,158,2.3,2.3,33,0.00,CLR,,0.00,WeatherDisplay:10.37,2013-03-15 18:42:00,
2013-03-15 13:43:00,54.5,26.0,28.91,ESE,112,5.9,5.9,33,0.00,CLR,,0.00,WeatherDisplay:10.37,2013-03-15 18:43:00,
2013-03-15 13:45:00,54.5,25.2,28.91,SE,144,5.0,0.0,32,0.00,CLR,,0.00,WeatherDisplay:10.37,2013-03-15 18:45:00,
2013-03-15 13:49:00,54.5,25.2,28.91,South,180,6.9,6.9,32,0.00,CLR,,0.00,WeatherDisplay:10.37,2013-03-15 18:49:00,
2013-03-15 13:50:00,54.7,25.4,28.91,South,180,5.8,5.8,32,0.00,CLR,,0.00,WeatherDisplay:10.37,2013-03-15 18:50:00,
2013-03-15 13:52:00,54.9,25.5,28.91,South,180,7.4,7.4,32,0.00,CLR,,0.00,WeatherDisplay:10.37,2013-03-15 18:52:00,
2013-03-15 13:55:00,55.0,25.7,28.91,SSE,158,8.1,8.1,32,0.00,CLR,,0.00,WeatherDisplay:10.37,2013-03-15 18:55:00,
2013-03-15 13:57:00,55.2,25.8,28.91,East,90,5.8,5.8,32,0.00,CLR,,0.00,WeatherDisplay:10.37,2013-03-15 18:57:00,
2013-03-15 13:58:00,55.2,25.8,28.91,South,180,6.9,6.9,32,0.00,CLR,,0.00,WeatherDisplay:10.37,2013-03-15 18:58:00,
2013-03-15 14:00:00,55.2,25.1,28.91,South,180,6.4,6.4,31,0.00,CLR,,0.00,WeatherDisplay:10.37,2013-03-15 19:00:00,
2013-03-15 14:02:00,54.9,24.0,28.91,South,180,4.6,4.6,30,0.00,CLR,,0.00,WeatherDisplay:10.37,2013-03-15 19:02:00,
2013-03-15 14:03:00,54.9,24.8,28.91,South,180,5.8,5.8,31,0.00,CLR,,0.00,WeatherDisplay:10.37,2013-03-15 19:03:00,
2013-03-15 14:08:00,55.0,24.1,28.91,ESE,112,3.5,3.5,30,0.00,CLR,,0.00,WeatherDisplay:10.37,2013-03-15 19:08:00,
2013-03-15 14:09:00,55.0,24.9,28.91,SSE,158,3.5,3.5,31,0.00,CLR,,0.00,WeatherDisplay:10.37,2013-03-15 19:09:00,
2013-03-15 14:13:00,54.9,24.0,28.91,South,180,6.4,6.4,30,0.00,CLR,,0.00,WeatherDisplay:10.37,2013-03-15 19:13:00,
2013-03-15 14:14:00,54.9,24.8,28.91,SW,225,6.9,6.9,31,0.00,CLR,,0.00,WeatherDisplay:10.37,2013-03-15 19:14:00,
2013-03-15 14:16:00,54.9,24.8,28.91,SSE,158,4.6,4.6,31,0.00,CLR,,0.00,WeatherDisplay:10.37,2013-03-15 19:16:00,
2013-03-15 14:20:00,54.9,24.8,28.91,SSE,167,6.0,0.0,31,0.00,CLR,,0.00,WeatherDisplay:10.37,2013-03-15 19:20:00,
2013-03-15 14:21:00,54.9,24.0,28.91,SSE,158,8.1,8.1,30,0.00,CLR,,0.00,WeatherDisplay:10.37,2013-03-15 19:21:00,
2013-03-15 14:23:00,54.9,24.0,28.91,South,180,8.1,8.1,30,0.00,CLR,,0.00,WeatherDisplay:10.37,2013-03-15 19:23:00,
2013-03-15 14:27:00,54.9,24.0,28.91,SSE,158,3.5,3.5,30,0.00,CLR,,0.00,WeatherDisplay:10.37,2013-03-15 19:27:00,
2013-03-15 14:29:00,54.9,25.5,28.91,SE,135,5.8,5.8,32,0.00,CLR,,0.00,WeatherDisplay:10.37,2013-03-15 19:29:00,
2013-03-15 14:30:00,54.9,25.5,28.91,SSE,158,5.8,5.8,32,0.00,CLR,,0.00,WeatherDisplay:10.37,2013-03-15 19:30:00,
2013-03-15 14:32:00,54.9,24.8,28.91,SSE,158,4.6,4.7,31,0.00,CLR,,0.00,WeatherDisplay:10.37,2013-03-15 19:32:00,
2013-03-15 14:33:00,54.7,24.6,28.91,SE,135,3.8,3.8,31,0.00,CLR,,0.00,WeatherDisplay:10.37,2013-03-15 19:33:00,
2013-03-15 14:34:00,54.7,24.6,28.91,South,180,4.6,4.6,31,0.00,CLR,,0.00,WeatherDisplay:10.37,2013-03-15 19:34:00,
2013-03-15 14:35:00,54.5,23.7,28.91,SSE,158,7.1,7.1,30,0.00,CLR,,0.00,WeatherDisplay:10.37,2013-03-15 19:35:00,
2013-03-15 14:39:00,54.5,23.7,28.91,ESE,112,6.9,6.9,30,0.00,CLR,,0.00,WeatherDisplay:10.37,2013-03-15 19:39:00,
2013-03-15 14:40:00,54.5,23.7,28.91,SE,136,5.0,0.0,30,0.00,CLR,,0.00,WeatherDisplay:10.37,2013-03-15 19:40:00,
2013-03-15 14:44:00,54.3,24.3,28.88,SE,135,6.9,6.9,31,0.00,CLR,,0.00,WeatherDisplay:10.37,2013-03-15 19:44:00,
2013-03-15 14:45:00,54.1,24.1,28.88,ESE,112,4.6,4.6,31,0.00,CLR,,0.00,WeatherDisplay:10.37,2013-03-15 19:45:00,
2013-03-15 14:46:00,54.1,23.3,28.88,South,180,4.6,4.6,30,0.00,CLR,,0.00,WeatherDisplay:10.37,2013-03-15 19:46:00,
2013-03-15 14:47:00,54.0,23.2,28.88,NNE,22,1.1,1.1,30,0.00,CLR,,0.00,WeatherDisplay:10.37,2013-03-15 19:47:00,
2013-03-15 14:49:00,54.0,23.2,28.88,ESE,112,5.4,5.4,30,0.00,CLR,,0.00,WeatherDisplay:10.37,2013-03-15 19:49:00,
2013-03-15 14:50:00,53.8,23.0,28.88,ESE,112,5.8,5.8,30,0.00,CLR,,0.00,WeatherDisplay:10.37,2013-03-15 19:50:00,
2013-03-15 14:52:00,53.8,23.0,28.88,South,180,3.5,3.5,30,0.00,CLR,,0.00,WeatherDisplay:10.37,2013-03-15 19:52:00,
2013-03-15 14:53:00,53.8,23.8,28.88,SSE,158,5.4,5.4,31,0.00,CLR,,0.00,WeatherDisplay:10.37,2013-03-15 19:53:00,
2013-03-15 14:54:00,53.8,23.0,28.88,SSE,158,8.1,8.1,30,0.00,CLR,,0.00,WeatherDisplay:10.37,2013-03-15 19:54:00,
2013-03-15 14:57:00,53.8,23.8,28.88,South,180,6.0,6.0,31,0.00,CLR,,0.00,WeatherDisplay:10.37,2013-03-15 19:57:00,
2013-03-15 14:59:00,53.8,24.6,28.88,SSE,158,5.8,5.8,32,0.00,CLR,,0.00,WeatherDisplay:10.37,2013-03-15 19:59:00,
2013-03-15 15:00:00,53.8,23.8,28.88,East,90,5.4,5.4,31,0.00,CLR,,0.00,WeatherDisplay:10.37,2013-03-15 20:00:00,
2013-03-15 15:04:00,53.6,23.7,28.88,South,180,3.5,3.5,31,0.00,CLR,,0.00,WeatherDisplay:10.37,2013-03-15 20:04:00,
2013-03-15 15:05:00,53.6,23.7,28.88,SSE,149,2.0,0.0,31,0.00,CLR,,0.00,WeatherDisplay:10.37,2013-03-15 20:05:00,
2013-03-15 15:06:00,53.6,24.4,28.88,SSE,158,5.8,5.8,32,0.00,CLR,,0.00,WeatherDisplay:10.37,2013-03-15 20:06:00,
2013-03-15 15:09:00,53.4,24.3,28.88,SE,135,4.6,4.6,32,0.00,CLR,,0.00,WeatherDisplay:10.37,2013-03-15 20:09:00,
2013-03-15 15:11:00,53.6,24.4,28.88,SSE,158,4.6,4.6,32,0.00,CLR,,0.00,WeatherDisplay:10.37,2013-03-15 20:11:00,
2013-03-15 15:12:00,53.4,24.3,28.88,SE,135,4.6,4.6,32,0.00,CLR,,0.00,WeatherDisplay:10.37,2013-03-15 20:12:00,
2013-03-15 15:13:00,53.4,24.3,28.88,SE,135,6.9,6.9,32,0.00,CLR,,0.00,WeatherDisplay:10.37,2013-03-15 20:13:00,
2013-03-15 15:16:00,53.4,24.3,28.88,ESE,112,4.6,4.6,32,0.00,CLR,,0.00,WeatherDisplay:10.37,2013-03-15 20:16:00,
2013-03-15 15:17:00,53.4,24.3,28.88,East,90,4.6,4.6,32,0.00,CLR,,0.00,WeatherDisplay:10.37,2013-03-15 20:17:00,
2013-03-15 15:20:00,53.4,23.5,28.88,ESE,112,5.8,5.8,31,0.00,CLR,,0.00,WeatherDisplay:10.37,2013-03-15 20:20:00,
2013-03-15 15:22:00,53.2,23.3,28.88,ENE,68,5.8,5.8,31,0.00,CLR,,0.00,WeatherDisplay:10.37,2013-03-15 20:22:00,
2013-03-15 15:27:00,52.9,23.0,28.85,East,90,5.8,5.8,31,0.00,CLR,,0.00,WeatherDisplay:10.37,2013-03-15 20:27:00,
2013-03-15 15:28:00,52.9,23.0,28.85,ESE,112,5.8,5.8,31,0.00,CLR,,0.00,WeatherDisplay:10.37,2013-03-15 20:28:00,
2013-03-15 15:30:00,52.9,23.0,28.85,ENE,68,4.3,4.3,31,0.00,CLR,,0.00,WeatherDisplay:10.37,2013-03-15 20:30:00,
2013-03-15 15:32:00,52.7,22.1,28.85,East,90,8.1,8.1,30,0.00,CLR,,0.00,WeatherDisplay:10.37,2013-03-15 20:32:00,
2013-03-15 15:33:00,52.5,21.9,28.85,ENE,68,6.9,6.9,30,0.00,CLR,,0.00,WeatherDisplay:10.37,2013-03-15 20:33:00,
2013-03-15 15:35:00,52.3,21.8,28.85,ESE,112,6.9,6.9,30,0.00,CLR,,0.00,WeatherDisplay:10.37,2013-03-15 20:35:00,
2013-03-15 15:36:00,52.3,21.8,28.85,East,90,5.9,5.9,30,0.00,CLR,,0.00,WeatherDisplay:10.37,2013-03-15 20:36:00,
2013-03-15 15:37:00,52.2,21.6,28.85,ESE,112,6.9,6.9,30,0.00,CLR,,0.00,WeatherDisplay:10.37,2013-03-15 20:37:00,
2013-03-15 15:40:00,52.1,21.5,28.85,East,93,5.0,0.0,30,0.00,CLR,,0.00,WeatherDisplay:10.37,2013-03-15 20:40:00,
2013-03-15 15:41:00,52.0,22.2,28.85,ESE,112,5.8,5.8,31,0.00,CLR,,0.00,WeatherDisplay:10.37,2013-03-15 20:41:00,
2013-03-15 15:42:00,52.2,22.4,28.85,ENE,68,6.0,6.0,31,0.00,CLR,,0.00,WeatherDisplay:10.37,2013-03-15 20:42:00,
2013-03-15 15:44:00,52.0,21.5,28.85,East,90,5.8,5.8,30,0.00,CLR,,0.00,WeatherDisplay:10.37,2013-03-15 20:44:00,
2013-03-15 15:47:00,52.0,22.2,28.85,ENE,68,8.1,8.1,31,0.00,CLR,,0.00,WeatherDisplay:10.37,2013-03-15 20:47:00,
2013-03-15 15:50:00,52.0,22.2,28.85,East,79,5.0,0.0,31,0.00,CLR,,0.00,WeatherDisplay:10.37,2013-03-15 20:50:00,
2013-03-15 15:51:00,52.0,22.2,28.85,East,90,6.9,6.9,31,0.00,CLR,,0.00,WeatherDisplay:10.37,2013-03-15 20:51:00,
2013-03-15 15:53:00,51.8,22.8,28.85,ENE,68,4.7,4.7,32,0.00,CLR,,0.00,WeatherDisplay:10.37,2013-03-15 20:53:00,
2013-03-15 15:56:00,52.0,23.7,28.85,ENE,68,5.8,5.8,33,0.00,CLR,,0.00,WeatherDisplay:10.37,2013-03-15 20:56:00,
2013-03-15 15:57:00,51.8,23.6,28.85,ESE,112,5.8,5.8,33,0.00,CLR,,0.00,WeatherDisplay:10.37,2013-03-15 20:57:00,
2013-03-15 15:58:00,52.0,23.7,28.85,NE,45,5.8,5.8,33,0.00,CLR,,0.00,WeatherDisplay:10.37,2013-03-15 20:58:00,
2013-03-15 16:02:00,52.0,24.4,28.85,ENE,68,8.1,8.1,34,0.00,CLR,,0.00,WeatherDisplay:10.37,2013-03-15 21:02:00,
2013-03-15 16:03:00,51.8,23.6,28.85,East,90,9.2,9.2,33,0.00,CLR,,0.00,WeatherDisplay:10.37,2013-03-15 21:03:00,
2013-03-15 16:07:00,52.2,24.6,28.85,ENE,68,5.8,5.8,34,0.00,CLR,,0.00,WeatherDisplay:10.37,2013-03-15 21:07:00,
2013-03-15 16:09:00,52.2,25.3,28.85,ENE,68,10.4,10.4,35,0.00,CLR,,0.00,WeatherDisplay:10.37,2013-03-15 21:09:00,
2013-03-15 16:12:00,52.0,25.1,28.85,ENE,68,5.8,5.8,35,0.00,CLR,,0.00,WeatherDisplay:10.37,2013-03-15 21:12:00,
2013-03-15 16:13:00,51.8,25.0,28.85,NNE,22,6.0,6.0,35,0.00,CLR,,0.00,WeatherDisplay:10.37,2013-03-15 21:13:00,
2013-03-15 16:14:00,51.8,25.7,28.85,NE,45,8.1,8.1,36,0.00,CLR,,0.00,WeatherDisplay:10.37,2013-03-15 21:14:00,
2013-03-15 16:16:00,51.8,25.7,28.85,East,90,5.8,5.8,36,0.00,CLR,,0.00,WeatherDisplay:10.37,2013-03-15 21:16:00,
2013-03-15 16:19:00,51.8,25.7,28.85,NE,45,8.1,8.1,36,0.00,CLR,,0.00,WeatherDisplay:10.37,2013-03-15 21:19:00,
2013-03-15 16:21:00,52.0,25.8,28.85,ENE,68,5.9,5.9,36,0.00,CLR,,0.00,WeatherDisplay:10.37,2013-03-15 21:21:00,
2013-03-15 16:22:00,51.8,25.7,28.85,ENE,68,5.8,5.8,36,0.00,CLR,,0.00,WeatherDisplay:10.37,2013-03-15 21:22:00,
2013-03-15 16:24:00,51.8,25.7,28.85,NE,45,6.9,6.9,36,0.00,CLR,,0.00,WeatherDisplay:10.37,2013-03-15 21:24:00,
2013-03-15 16:25:00,51.8,25.7,28.85,ENE,69,6.0,0.0,36,0.00,CLR,,0.00,WeatherDisplay:10.37,2013-03-15 21:25:00,
2013-03-15 16:27:00,51.6,25.5,28.85,ENE,68,6.0,6.0,36,0.00,CLR,,0.00,WeatherDisplay:10.37,2013-03-15 21:27:00,
2013-03-15 16:28:00,51.4,26.0,28.85,ENE,68,6.9,6.9,37,0.00,CLR,,0.00,WeatherDisplay:10.37,2013-03-15 21:28:00,
2013-03-15 16:30:00,51.6,26.2,28.85,ENE,68,5.8,5.8,37,0.00,CLR,,0.00,WeatherDisplay:10.37,2013-03-15 21:30:00,
2013-03-15 16:33:00,51.4,26.0,28.85,East,90,6.9,6.9,37,0.00,CLR,,0.00,WeatherDisplay:10.37,2013-03-15 21:33:00,
2013-03-15 16:35:00,51.4,26.0,28.85,ENE,72,6.0,0.0,37,0.00,CLR,,0.00,WeatherDisplay:10.37,2013-03-15 21:35:00,
2013-03-15 16:38:00,51.3,25.8,28.85,ENE,68,5.8,5.8,37,0.00,CLR,,0.00,WeatherDisplay:10.37,2013-03-15 21:38:00,
2013-03-15 16:41:00,51.3,25.8,28.85,East,90,5.8,6.0,37,0.00,CLR,,0.00,WeatherDisplay:10.37,2013-03-15 21:41:00,
2013-03-15 16:42:00,51.3,25.8,28.85,East,90,5.8,6.0,37,0.00,CLR,,0.00,WeatherDisplay:10.37,2013-03-15 21:42:00,
2013-03-15 16:43:00,51.4,26.0,28.85,ENE,68,5.8,5.8,37,0.00,CLR,,0.00,WeatherDisplay:10.37,2013-03-15 21:43:00,
2013-03-15 16:44:00,51.4,26.0,28.85,ENE,68,6.9,6.9,37,0.00,CLR,,0.00,WeatherDisplay:10.37,2013-03-15 21:44:00,
2013-03-15 16:47:00,51.3,25.8,28.85,East,90,5.8,5.8,37,0.00,CLR,,0.00,WeatherDisplay:10.37,2013-03-15 21:47:00,
2013-03-15 16:49:00,51.3,25.8,28.85,ESE,112,5.8,5.8,37,0.00,CLR,,0.00,WeatherDisplay:10.37,2013-03-15 21:49:00,
2013-03-15 16:52:00,51.1,26.3,28.85,ENE,68,8.1,8.1,38,0.00,CLR,,0.00,WeatherDisplay:10.37,2013-03-15 21:52:00,
2013-03-15 16:53:00,51.1,26.3,28.85,East,90,8.1,8.1,38,0.00,CLR,,0.00,WeatherDisplay:10.37,2013-03-15 21:53:00,
2013-03-15 16:54:00,51.1,26.3,28.85,ENE,68,8.1,8.1,38,0.00,CLR,,0.00,WeatherDisplay:10.37,2013-03-15 21:54:00,
2013-03-15 16:57:00,50.9,26.8,28.85,East,90,8.1,8.1,39,0.00,CLR,,0.00,WeatherDisplay:10.37,2013-03-15 21:57:00,
2013-03-15 16:58:00,50.9,26.8,28.85,East,90,5.8,5.8,39,0.00,CLR,,0.00,WeatherDisplay:10.37,2013-03-15 21:58:00,
2013-03-15 16:59:00,50.9,26.8,28.85,East,90,8.1,8.1,39,0.00,CLR,,0.00,WeatherDisplay:10.37,2013-03-15 21:59:00,
2013-03-15 17:00:00,50.9,26.8,28.85,East,90,7.4,7.4,39,0.00,CLR,,0.00,WeatherDisplay:10.37,2013-03-15 22:00:00,
2013-03-15 17:04:00,50.9,26.8,28.85,ESE,112,5.8,5.8,39,0.00,CLR,,0.00,WeatherDisplay:10.37,2013-03-15 22:04:00,
2013-03-15 17:05:00,50.9,26.8,28.85,East,90,5.0,0.0,39,0.00,CLR,,0.00,WeatherDisplay:10.37,2013-03-15 22:05:00,
2013-03-15 17:06:00,50.9,26.8,28.85,East,90,9.2,9.2,39,0.00,CLR,,0.00,WeatherDisplay:10.37,2013-03-15 22:06:00,
2013-03-15 17:09:00,50.5,27.1,28.85,East,90,5.8,5.8,40,0.00,CLR,,0.00,WeatherDisplay:10.37,2013-03-15 22:09:00,
2013-03-15 17:10:00,50.5,27.1,28.85,East,90,3.6,3.6,40,0.00,CLR,,0.00,WeatherDisplay:10.37,2013-03-15 22:10:00,
2013-03-15 17:11:00,50.5,27.1,28.85,East,90,5.8,5.8,40,0.00,CLR,,0.00,WeatherDisplay:10.37,2013-03-15 22:11:00,
2013-03-15 17:14:00,50.7,27.2,28.82,East,90,5.8,5.8,40,0.00,CLR,,0.00,WeatherDisplay:10.37,2013-03-15 22:14:00,
2013-03-15 17:15:00,50.7,27.2,28.82,ENE,68,5.8,5.8,40,0.00,CLR,,0.00,WeatherDisplay:10.37,2013-03-15 22:15:00,
2013-03-15 17:17:00,50.7,27.2,28.82,ESE,112,4.6,4.6,40,0.00,CLR,,0.00,WeatherDisplay:10.37,2013-03-15 22:17:00,
2013-03-15 17:20:00,50.9,28.0,28.82,East,86,5.0,0.0,41,0.00,CLR,,0.00,WeatherDisplay:10.37,2013-03-15 22:20:00,
2013-03-15 17:21:00,50.9,28.0,28.82,East,90,5.8,5.8,41,0.00,CLR,,0.00,WeatherDisplay:10.37,2013-03-15 22:21:00,
2013-03-15 17:22:00,50.9,28.0,28.82,ENE,68,6.9,6.9,41,0.00,CLR,,0.00,WeatherDisplay:10.37,2013-03-15 22:22:00,
2013-03-15 17:23:00,50.9,28.0,28.82,ESE,112,6.9,6.9,41,0.00,CLR,,0.00,WeatherDisplay:10.37,2013-03-15 22:23:00,
2013-03-15 17:25:00,50.7,27.8,28.82,East,80,5.0,0.0,41,0.00,CLR,,0.00,WeatherDisplay:10.37,2013-03-15 22:25:00,
2013-03-15 17:26:00,50.7,27.8,28.82,East,90,8.1,8.1,41,0.00,CLR,,0.00,WeatherDisplay:10.37,2013-03-15 22:26:00,
2013-03-15 17:28:00,50.9,27.4,28.82,ENE,68,5.8,5.8,40,0.00,CLR,,0.00,WeatherDisplay:10.37,2013-03-15 22:28:00,
2013-03-15 17:30:00,50.9,28.0,28.82,East,84,6.0,0.0,41,0.00,CLR,,0.00,WeatherDisplay:10.37,2013-03-15 22:30:00,
2013-03-15 17:31:00,50.9,28.0,28.82,East,90,5.8,5.8,41,0.00,CLR,,0.00,WeatherDisplay:10.37,2013-03-15 22:31:00,
2013-03-15 17:32:00,50.9,28.0,28.82,ESE,112,6.4,6.4,41,0.00,CLR,,0.00,WeatherDisplay:10.37,2013-03-15 22:32:00,
2013-03-15 17:34:00,50.9,28.0,28.82,SE,135,6.9,6.9,41,0.00,CLR,,0.00,WeatherDisplay:10.37,2013-03-15 22:34:00,
2013-03-15 17:37:00,50.9,28.0,28.82,East,90,4.0,4.0,41,0.00,CLR,,0.00,WeatherDisplay:10.37,2013-03-15 22:37:00,
2013-03-15 17:39:00,50.9,28.0,28.82,ESE,112,5.8,5.8,41,0.00,CLR,,0.00,WeatherDisplay:10.37,2013-03-15 22:39:00,
2013-03-15 17:41:00,50.9,28.0,28.82,ESE,112,4.6,4.6,41,0.00,CLR,,0.00,WeatherDisplay:10.37,2013-03-15 22:41:00,
2013-03-15 17:43:00,50.9,28.0,28.82,NNE,22,4.6,4.6,41,0.00,CLR,,0.00,WeatherDisplay:10.37,2013-03-15 22:43:00,
2013-03-15 17:44:00,50.9,28.0,28.82,ENE,68,4.6,4.6,41,0.00,CLR,,0.00,WeatherDisplay:10.37,2013-03-15 22:44:00,
2013-03-15 17:45:00,50.9,28.0,28.82,ENE,69,3.0,0.0,41,0.00,CLR,,0.00,WeatherDisplay:10.37,2013-03-15 22:45:00,
2013-03-15 17:47:00,50.7,27.8,28.82,East,90,5.8,5.8,41,0.00,CLR,,0.00,WeatherDisplay:10.37,2013-03-15 22:47:00,
2013-03-15 17:49:00,50.9,28.0,28.82,NE,45,4.6,4.6,41,0.00,CLR,,0.00,WeatherDisplay:10.37,2013-03-15 22:49:00,
2013-03-15 17:50:00,50.7,27.8,28.82,ENE,68,4.6,4.6,41,0.00,CLR,,0.00,WeatherDisplay:10.37,2013-03-15 22:50:00,
2013-03-15 17:52:00,50.7,27.8,28.82,ENE,68,4.6,4.6,41,0.00,CLR,,0.00,WeatherDisplay:10.37,2013-03-15 22:52:00,
2013-03-15 17:53:00,50.7,27.8,28.82,ESE,112,4.6,4.6,41,0.00,CLR,,0.00,WeatherDisplay:10.37,2013-03-15 22:53:00,
2013-03-15 17:56:00,50.7,27.8,28.82,SE,135,3.5,3.5,41,0.00,CLR,,0.00,WeatherDisplay:10.37,2013-03-15 22:56:00,
2013-03-15 17:59:00,50.7,27.8,28.85,ENE,68,3.8,3.8,41,0.00,CLR,,0.00,WeatherDisplay:10.37,2013-03-15 22:59:00,
2013-03-15 18:00:00,50.7,27.8,28.85,NE,45,4.7,4.7,41,0.00,CLR,,0.00,WeatherDisplay:10.37,2013-03-15 23:00:00,
2013-03-15 18:01:00,50.7,27.8,28.85,East,90,4.6,4.6,41,0.00,CLR,,0.00,WeatherDisplay:10.37,2013-03-15 23:01:00,
2013-03-15 18:02:00,50.7,27.8,28.85,East,90,4.6,4.6,41,0.00,CLR,,0.00,WeatherDisplay:10.37,2013-03-15 23:02:00,
2013-03-15 18:07:00,50.5,27.7,28.85,ENE,68,5.8,5.8,41,0.00,CLR,,0.00,WeatherDisplay:10.37,2013-03-15 23:07:00,
2013-03-15 18:10:00,50.5,27.7,28.85,East,90,3.5,3.5,41,0.00,CLR,,0.00,WeatherDisplay:10.37,2013-03-15 23:10:00,
2013-03-15 18:12:00,50.4,27.5,28.82,East,90,3.8,3.8,41,0.00,CLR,,0.00,WeatherDisplay:10.37,2013-03-15 23:12:00,
2013-03-15 18:14:00,50.4,27.5,28.82,ENE,68,4.6,4.6,41,0.00,CLR,,0.00,WeatherDisplay:10.37,2013-03-15 23:14:00,
2013-03-15 18:15:00,50.4,27.5,28.82,ENE,70,3.0,0.0,41,0.00,CLR,,0.00,WeatherDisplay:10.37,2013-03-15 23:15:00,
2013-03-15 18:17:00,50.2,27.4,28.82,ENE,68,4.6,4.7,41,0.00,CLR,,0.00,WeatherDisplay:10.37,2013-03-15 23:17:00,
2013-03-15 18:20:00,50.2,27.4,28.82,ENE,60,3.0,0.0,41,0.00,CLR,,0.00,WeatherDisplay:10.37,2013-03-15 23:20:00,
2013-03-15 18:22:00,50.0,27.8,28.82,NNE,22,4.6,4.6,42,0.00,CLR,,0.00,WeatherDisplay:10.37,2013-03-15 23:22:00,
2013-03-15 18:23:00,50.0,27.8,28.82,ENE,68,4.6,4.6,42,0.00,CLR,,0.00,WeatherDisplay:10.37,2013-03-15 23:23:00,
2013-03-15 18:25:00,49.8,28.2,28.82,ENE,68,5.8,5.8,43,0.00,CLR,,0.00,WeatherDisplay:10.37,2013-03-15 23:25:00,
2013-03-15 18:27:00,49.6,28.0,28.85,NNE,22,6.9,6.9,43,0.00,CLR,,0.00,WeatherDisplay:10.37,2013-03-15 23:27:00,
2013-03-15 18:28:00,49.6,28.0,28.85,East,90,5.8,5.9,43,0.00,CLR,,0.00,WeatherDisplay:10.37,2013-03-15 23:28:00,
2013-03-15 18:29:00,49.5,28.4,28.85,ENE,68,8.5,8.5,44,0.00,CLR,,0.00,WeatherDisplay:10.37,2013-03-15 23:29:00,
2013-03-15 18:31:00,49.3,28.3,28.85,ENE,68,5.8,5.8,44,0.00,CLR,,0.00,WeatherDisplay:10.37,2013-03-15 23:31:00,
2013-03-15 18:32:00,49.1,28.7,28.85,ENE,68,5.8,5.8,45,0.00,CLR,,0.00,WeatherDisplay:10.37,2013-03-15 23:32:00,
2013-03-15 18:35:00,48.8,27.9,28.85,ENE,71,3.0,0.0,44,0.00,CLR,,0.00,WeatherDisplay:10.37,2013-03-15 23:35:00,
2013-03-15 18:36:00,48.6,28.2,28.85,ENE,68,5.4,5.4,45,0.00,CLR,,0.00,WeatherDisplay:10.37,2013-03-15 23:36:00,
2013-03-15 18:37:00,48.6,28.2,28.85,ENE,68,5.8,5.8,45,0.00,CLR,,0.00,WeatherDisplay:10.37,2013-03-15 23:37:00,
2013-03-15 18:38:00,48.4,28.0,28.85,East,90,4.6,4.9,45,0.00,CLR,,0.00,WeatherDisplay:10.37,2013-03-15 23:38:00,
2013-03-15 18:40:00,48.2,27.8,28.85,ENE,68,4.6,4.6,45,0.00,CLR,,0.00,WeatherDisplay:10.37,2013-03-15 23:40:00,
2013-03-15 18:41:00,48.2,27.8,28.85,ENE,68,6.0,6.0,45,0.00,CLR,,0.00,WeatherDisplay:10.37,2013-03-15 23:41:00,
2013-03-15 18:44:00,47.7,27.9,28.82,ENE,68,4.9,4.9,46,0.00,CLR,,0.00,WeatherDisplay:10.37,2013-03-15 23:44:00,
2013-03-15 18:46:00,47.7,27.9,28.82,East,90,5.8,5.8,46,0.00,CLR,,0.00,WeatherDisplay:10.37,2013-03-15 23:46:00,
2013-03-15 18:49:00,47.5,28.2,28.82,ENE,68,4.6,4.6,47,0.00,CLR,,0.00,WeatherDisplay:10.37,2013-03-15 23:49:00,
2013-03-15 18:51:00,47.3,28.1,28.82,ENE,68,5.8,5.8,47,0.00,CLR,,0.00,WeatherDisplay:10.37,2013-03-15 23:51:00,
2013-03-15 18:52:00,47.1,27.9,28.82,ENE,68,6.0,6.0,47,0.00,CLR,,0.00,WeatherDisplay:10.37,2013-03-15 23:52:00,
2013-03-15 18:53:00,47.1,27.9,28.82,ENE,68,5.8,5.8,47,0.00,CLR,,0.00,WeatherDisplay:10.37,2013-03-15 23:53:00,
2013-03-15 18:56:00,46.8,28.1,28.82,ENE,68,6.9,6.9,48,0.00,CLR,,0.00,WeatherDisplay:10.37,2013-03-15 23:56:00,
2013-03-15 18:57:00,46.6,27.9,28.82,NE,45,6.9,6.9,48,0.00,CLR,,0.00,WeatherDisplay:10.37,2013-03-15 23:57:00,
2013-03-15 18:58:00,46.6,27.9,28.82,ENE,68,5.8,5.8,48,0.00,CLR,,0.00,WeatherDisplay:10.37,2013-03-15 23:58:00,
2013-03-15 19:02:00,46.4,27.8,28.82,East,90,6.9,6.9,48,0.00,CLR,,0.00,WeatherDisplay:10.37,2013-03-16 00:02:00,
2013-03-15 19:05:00,46.2,28.1,28.82,ENE,68,5.8,5.8,49,0.00,CLR,,0.00,WeatherDisplay:10.37,2013-03-16 00:05:00,
2013-03-15 19:07:00,46.0,27.9,28.82,ENE,68,5.8,5.8,49,0.00,CLR,,0.00,WeatherDisplay:10.37,2013-03-16 00:07:00,
2013-03-15 19:08:00,45.9,27.8,28.82,ENE,68,5.8,5.8,49,0.00,CLR,,0.00,WeatherDisplay:10.37,2013-03-16 00:08:00,
2013-03-15 19:12:00,45.7,27.6,28.82,East,90,6.0,6.0,49,0.00,CLR,,0.00,WeatherDisplay:10.37,2013-03-16 00:12:00,
2013-03-15 19:14:00,45.5,27.4,28.82,East,90,5.8,5.8,49,0.00,CLR,,0.00,WeatherDisplay:10.37,2013-03-16 00:14:00,
2013-03-15 19:15:00,45.5,27.9,28.82,ENE,68,6.4,6.4,50,0.00,CLR,,0.00,WeatherDisplay:10.37,2013-03-16 00:15:00,
2013-03-15 19:17:00,45.3,27.8,28.82,ENE,68,5.8,5.8,50,0.00,CLR,,0.00,WeatherDisplay:10.37,2013-03-16 00:17:00,
2013-03-15 19:19:00,45.1,27.6,28.82,East,90,5.8,5.8,50,0.00,CLR,,0.00,WeatherDisplay:10.37,2013-03-16 00:19:00,
2013-03-15 19:20:00,45.1,27.6,28.82,ENE,75,3.0,0.0,50,0.00,CLR,,0.00,WeatherDisplay:10.37,2013-03-16 00:20:00,
2013-03-15 19:25:00,44.6,27.1,28.82,NE,45,4.6,4.6,50,0.00,CLR,,0.00,WeatherDisplay:10.37,2013-03-16 00:25:00,
2013-03-15 19:26:00,44.6,27.1,28.82,ENE,68,4.6,4.6,50,0.00,CLR,,0.00,WeatherDisplay:10.37,2013-03-16 00:26:00,
2013-03-15 19:30:00,44.1,27.1,28.82,ENE,68,7.1,7.1,51,0.00,CLR,,0.00,WeatherDisplay:10.37,2013-03-16 00:30:00,
2013-03-15 19:32:00,43.9,26.9,28.82,ENE,68,8.1,8.1,51,0.00,CLR,,0.00,WeatherDisplay:10.37,2013-03-16 00:32:00,
2013-03-15 19:33:00,43.7,26.7,28.82,ENE,68,5.8,5.8,51,0.00,CLR,,0.00,WeatherDisplay:10.37,2013-03-16 00:33:00,
2013-03-15 19:36:00,43.5,27.0,28.82,ENE,68,5.6,5.6,52,0.00,CLR,,0.00,WeatherDisplay:10.37,2013-03-16 00:36:00,
2013-03-15 19:37:00,43.5,27.0,28.82,ENE,68,4.9,4.9,52,0.00,CLR,,0.00,WeatherDisplay:10.37,2013-03-16 00:37:00,
2013-03-15 19:39:00,43.5,26.6,28.82,ENE,68,6.2,6.2,51,0.00,CLR,,0.00,WeatherDisplay:10.37,2013-03-16 00:39:00,
2013-03-15 19:40:00,43.5,26.6,28.82,ENE,68,5.0,0.0,51,0.00,CLR,,0.00,WeatherDisplay:10.37,2013-03-16 00:40:00,
2013-03-15 19:42:00,43.3,26.9,28.82,East,90,5.8,5.8,52,0.00,CLR,,0.00,WeatherDisplay:10.37,2013-03-16 00:42:00,
2013-03-15 19:43:00,43.2,26.7,28.82,ENE,68,5.8,5.8,52,0.00,CLR,,0.00,WeatherDisplay:10.37,2013-03-16 00:43:00,
2013-03-15 19:45:00,43.1,26.7,28.82,ENE,71,5.0,0.0,52,0.00,CLR,,0.00,WeatherDisplay:10.37,2013-03-16 00:45:00,
2013-03-15 19:49:00,42.8,26.8,28.82,NNE,22,5.6,5.6,53,0.00,CLR,,0.00,WeatherDisplay:10.37,2013-03-16 00:49:00,
2013-03-15 19:50:00,42.8,26.8,28.82,NNE,22,6.9,6.9,53,0.00,CLR,,0.00,WeatherDisplay:10.37,2013-03-16 00:50:00,
2013-03-15 19:55:00,42.3,26.3,28.82,ENE,68,4.6,4.6,53,0.00,CLR,,0.00,WeatherDisplay:10.37,2013-03-16 00:55:00,
2013-03-15 19:56:00,42.1,26.6,28.82,ENE,68,6.0,6.0,54,0.00,CLR,,0.00,WeatherDisplay:10.37,2013-03-16 00:56:00,
2013-03-15 19:57:00,42.1,26.6,28.79,ENE,68,5.8,5.8,54,0.00,CLR,,0.00,WeatherDisplay:10.37,2013-03-16 00:57:00,
2013-03-15 20:00:00,41.9,26.4,28.79,ENE,68,4.6,4.6,54,0.00,CLR,,0.00,WeatherDisplay:10.37,2013-03-16 01:00:00,
2013-03-15 20:03:00,41.9,27.3,28.79,ENE,68,5.8,5.8,56,0.00,CLR,,0.00,WeatherDisplay:10.37,2013-03-16 01:03:00,
2013-03-15 20:04:00,41.7,27.2,28.79,ENE,68,6.2,6.2,56,0.00,CLR,,0.00,WeatherDisplay:10.37,2013-03-16 01:04:00,
2013-03-15 20:05:00,41.7,27.6,28.79,ENE,68,6.9,6.9,57,0.00,CLR,,0.00,WeatherDisplay:10.37,2013-03-16 01:05:00,
2013-03-15 20:10:00,41.9,27.8,28.79,ENE,68,4.6,4.6,57,0.00,CLR,,0.00,WeatherDisplay:10.37,2013-03-16 01:10:00,
2013-03-15 20:11:00,41.7,27.6,28.79,ENE,68,4.6,4.6,57,0.00,CLR,,0.00,WeatherDisplay:10.37,2013-03-16 01:11:00,
2013-03-15 20:15:00,41.7,27.6,28.79,ENE,68,5.8,5.8,57,0.00,CLR,,0.00,WeatherDisplay:10.37,2013-03-16 01:15:00,
2013-03-15 20:16:00,41.7,27.6,28.79,ENE,68,5.8,5.8,57,0.00,CLR,,0.00,WeatherDisplay:10.37,2013-03-16 01:16:00,
2013-03-15 20:20:00,41.5,27.4,28.79,ENE,58,5.0,0.0,57,0.00,CLR,,0.00,WeatherDisplay:10.37,2013-03-16 01:20:00,
2013-03-15 20:21:00,41.5,27.4,28.79,NNE,22,5.8,5.8,57,0.00,CLR,,0.00,WeatherDisplay:10.37,2013-03-16 01:21:00,
2013-03-15 20:22:00,41.4,27.7,28.79,ENE,68,5.8,5.8,58,0.00,CLR,,0.00,WeatherDisplay:10.37,2013-03-16 01:22:00,
2013-03-15 20:23:00,41.4,27.7,28.79,NE,45,6.0,6.0,58,0.00,CLR,,0.00,WeatherDisplay:10.37,2013-03-16 01:23:00,
2013-03-15 20:26:00,41.2,27.5,28.79,ENE,68,4.6,4.6,58,0.00,CLR,,0.00,WeatherDisplay:10.37,2013-03-16 01:26:00,
2013-03-15 20:27:00,41.2,27.5,28.79,ENE,68,4.6,4.6,58,0.00,CLR,,0.00,WeatherDisplay:10.37,2013-03-16 01:27:00,
2013-03-15 20:30:00,41.0,27.3,28.79,ENE,68,4.6,4.6,58,0.00,CLR,,0.00,WeatherDisplay:10.37,2013-03-16 01:30:00,
2013-03-15 20:32:00,40.6,27.4,28.79,NE,45,3.5,3.5,59,0.00,CLR,,0.00,WeatherDisplay:10.37,2013-03-16 01:32:00,
2013-03-15 20:35:00,40.5,27.2,28.79,ENE,68,3.5,3.5,59,0.00,CLR,,0.00,WeatherDisplay:10.37,2013-03-16 01:35:00,
2013-03-15 20:36:00,40.5,27.2,28.79,East,90,4.6,4.6,59,0.00,CLR,,0.00,WeatherDisplay:10.37,2013-03-16 01:36:00,
2013-03-15 20:37:00,40.5,26.8,28.79,ENE,68,4.9,4.9,58,0.00,CLR,,0.00,WeatherDisplay:10.37,2013-03-16 01:37:00,
2013-03-15 20:38:00,40.3,26.7,28.79,ENE,68,4.7,4.7,58,0.00,CLR,,0.00,WeatherDisplay:10.37,2013-03-16 01:38:00,
2013-03-15 20:40:00,40.3,27.1,28.79,ENE,68,4.6,4.6,59,0.00,CLR,,0.00,WeatherDisplay:10.37,2013-03-16 01:40:00,
2013-03-15 20:42:00,40.3,27.1,28.79,ENE,68,5.8,5.8,59,0.00,CLR,,0.00,WeatherDisplay:10.37,2013-03-16 01:42:00,
2013-03-15 20:44:00,40.3,27.5,28.79,NE,45,3.5,3.5,60,0.00,CLR,,0.00,WeatherDisplay:10.37,2013-03-16 01:44:00,
2013-03-15 20:45:00,40.3,27.5,28.79,NE,45,5.8,5.8,60,0.00,CLR,,0.00,WeatherDisplay:10.37,2013-03-16 01:45:00,
2013-03-15 20:46:00,40.3,27.9,28.79,NNE,22,4.6,4.6,61,0.00,CLR,,0.00,WeatherDisplay:10.37,2013-03-16 01:46:00,
2013-03-15 20:49:00,40.3,27.9,28.79,NE,45,6.2,6.2,61,0.00,CLR,,0.00,WeatherDisplay:10.37,2013-03-16 01:49:00,
2013-03-15 20:50:00,40.3,27.9,28.79,NE,55,5.0,0.0,61,0.00,CLR,,0.00,WeatherDisplay:10.37,2013-03-16 01:50:00,
2013-03-15 20:55:00,40.1,28.5,28.79,ENE,68,5.8,5.8,63,0.00,CLR,,0.00,WeatherDisplay:10.37,2013-03-16 01:55:00,
2013-03-15 20:57:00,40.1,28.5,28.79,ENE,68,5.8,5.8,63,0.00,CLR,,0.00,WeatherDisplay:10.37,2013-03-16 01:57:00,
2013-03-15 21:01:00,40.1,28.9,28.79,ENE,68,6.4,6.4,64,0.00,CLR,,0.00,WeatherDisplay:10.37,2013-03-16 02:01:00,
2013-03-15 21:02:00,40.1,28.9,28.79,ENE,68,6.9,6.9,64,0.00,CLR,,0.00,WeatherDisplay:10.37,2013-03-16 02:02:00,
2013-03-15 21:03:00,40.1,29.3,28.79,ENE,68,5.8,5.9,65,0.00,CLR,,0.00,WeatherDisplay:10.37,2013-03-16 02:03:00,
2013-03-15 21:05:00,40.1,29.3,28.79,ENE,68,5.8,5.8,65,0.00,CLR,,0.00,WeatherDisplay:10.37,2013-03-16 02:05:00,
2013-03-15 21:06:00,39.9,29.1,28.79,ENE,68,4.7,4.7,65,0.00,CLR,,0.00,WeatherDisplay:10.37,2013-03-16 02:06:00,
2013-03-15 21:07:00,39.9,29.1,28.79,East,90,5.8,5.8,65,0.00,CLR,,0.00,WeatherDisplay:10.37,2013-03-16 02:07:00,
2013-03-15 21:09:00,39.9,28.7,28.79,ENE,68,5.8,5.8,64,0.00,CLR,,0.00,WeatherDisplay:10.37,2013-03-16 02:09:00,
2013-03-15 21:11:00,39.9,29.1,28.79,ENE,68,5.8,5.8,65,0.00,CLR,,0.00,WeatherDisplay:10.37,2013-03-16 02:11:00,
2013-03-15 21:12:00,39.9,29.1,28.76,ENE,68,4.6,4.6,65,0.00,CLR,,0.00,WeatherDisplay:10.37,2013-03-16 02:12:00,
2013-03-15 21:13:00,39.9,29.1,28.76,NE,45,4.7,4.7,65,0.00,CLR,,0.00,WeatherDisplay:10.37,2013-03-16 02:13:00,
2013-03-15 21:15:00,39.7,28.9,28.76,NE,45,7.4,7.4,65,0.00,CLR,,0.00,WeatherDisplay:10.37,2013-03-16 02:15:00,
2013-03-15 21:16:00,39.7,28.9,28.76,NNE,22,6.9,6.9,65,0.00,CLR,,0.00,WeatherDisplay:10.37,2013-03-16 02:16:00,
2013-03-15 21:18:00,39.7,29.3,28.76,NE,45,6.9,6.9,66,0.00,CLR,,0.00,WeatherDisplay:10.37,2013-03-16 02:18:00,
2013-03-15 21:22:00,39.6,29.1,28.76,ENE,68,6.0,6.0,66,0.00,CLR,,0.00,WeatherDisplay:10.37,2013-03-16 02:22:00,
2013-03-15 21:23:00,39.6,29.1,28.76,ENE,68,5.8,5.8,66,0.00,CLR,,0.00,WeatherDisplay:10.37,2013-03-16 02:23:00,
2013-03-15 21:26:00,39.6,29.1,28.76,NNE,22,5.8,5.8,66,0.00,CLR,,0.00,WeatherDisplay:10.37,2013-03-16 02:26:00,
2013-03-15 21:28:00,39.6,29.5,28.79,NNE,22,8.1,8.1,67,0.00,CLR,,0.00,WeatherDisplay:10.37,2013-03-16 02:28:00,
2013-03-15 21:29:00,39.6,29.5,28.79,NNE,22,8.1,8.1,67,0.00,CLR,,0.00,WeatherDisplay:10.37,2013-03-16 02:29:00,
2013-03-15 21:32:00,39.4,29.7,28.79,ENE,68,6.9,6.9,68,0.00,CLR,,0.00,WeatherDisplay:10.37,2013-03-16 02:32:00,
2013-03-15 21:34:00,39.4,29.3,28.79,ENE,68,3.6,3.8,67,0.00,CLR,,0.00,WeatherDisplay:10.37,2013-03-16 02:34:00,
2013-03-15 21:35:00,39.4,29.3,28.79,NE,51,3.0,0.0,67,0.00,CLR,,0.00,WeatherDisplay:10.37,2013-03-16 02:35:00,
2013-03-15 21:39:00,39.4,29.3,28.79,NNE,22,5.8,5.8,67,0.00,CLR,,0.00,WeatherDisplay:10.37,2013-03-16 02:39:00,
2013-03-15 21:40:00,39.4,29.7,28.79,ENE,68,5.9,5.9,68,0.00,CLR,,0.00,WeatherDisplay:10.37,2013-03-16 02:40:00,
2013-03-15 21:41:00,39.4,29.7,28.79,NE,45,5.8,5.8,68,0.00,CLR,,0.00,WeatherDisplay:10.37,2013-03-16 02:41:00,
2013-03-15 21:44:00,39.4,29.7,28.79,NE,45,5.8,5.8,68,0.00,CLR,,0.00,WeatherDisplay:10.37,2013-03-16 02:44:00,
2013-03-15 21:47:00,39.4,29.7,28.79,NNE,22,5.8,5.8,68,0.00,CLR,,0.00,WeatherDisplay:10.37,2013-03-16 02:47:00,
2013-03-15 21:48:00,39.4,29.7,28.79,ENE,68,5.8,5.8,68,0.00,CLR,,0.00,WeatherDisplay:10.37,2013-03-16 02:48:00,
2013-03-15 21:49:00,39.4,29.7,28.79,NE,45,6.9,6.9,68,0.00,CLR,,0.00,WeatherDisplay:10.37,2013-03-16 02:49:00,
2013-03-15 21:52:00,39.4,29.7,28.79,NNE,22,5.8,5.8,68,0.00,CLR,,0.00,WeatherDisplay:10.37,2013-03-16 02:52:00,
2013-03-15 21:53:00,39.4,30.1,28.79,NNE,22,5.4,5.4,69,0.00,CLR,,0.00,WeatherDisplay:10.37,2013-03-16 02:53:00,
2013-03-15 21:54:00,39.4,30.1,28.79,ENE,68,8.1,8.1,69,0.00,CLR,,0.00,WeatherDisplay:10.37,2013-03-16 02:54:00,
2013-03-15 21:55:00,39.4,30.1,28.79,NE,45,9.7,9.7,69,0.00,CLR,,0.00,WeatherDisplay:10.37,2013-03-16 02:55:00,
2013-03-15 21:57:00,39.6,30.6,28.79,ENE,68,6.9,6.9,70,0.00,CLR,,0.00,WeatherDisplay:10.37,2013-03-16 02:57:00,
2013-03-15 21:58:00,39.6,30.6,28.79,ENE,68,6.9,6.9,70,0.00,CLR,,0.00,WeatherDisplay:10.37,2013-03-16 02:58:00,
2013-03-15 22:00:00,39.6,30.6,28.79,NE,49,6.0,0.0,70,0.00,CLR,,0.00,WeatherDisplay:10.37,2013-03-16 03:00:00,
2013-03-15 22:02:00,39.7,31.1,28.79,NE,45,6.9,6.9,71,0.00,CLR,,0.00,WeatherDisplay:10.37,2013-03-16 03:02:00,
2013-03-15 22:04:00,39.7,31.1,28.79,NNE,22,4.9,4.9,71,0.00,CLR,,0.00,WeatherDisplay:10.37,2013-03-16 03:04:00,
2013-03-15 22:07:00,39.7,31.1,28.79,NE,45,5.8,6.0,71,0.00,CLR,,0.00,WeatherDisplay:10.37,2013-03-16 03:07:00,
2013-03-15 22:08:00,39.7,31.4,28.79,ENE,68,6.2,6.2,72,0.00,CLR,,0.00,WeatherDisplay:10.37,2013-03-16 03:08:00,
2013-03-15 22:11:00,39.7,31.4,28.79,ENE,68,6.9,6.9,72,0.00,CLR,,0.00,WeatherDisplay:10.37,2013-03-16 03:11:00,
2013-03-15 22:12:00,39.7,31.4,28.79,ENE,68,6.9,6.9,72,0.00,CLR,,0.00,WeatherDisplay:10.37,2013-03-16 03:12:00,
2013-03-15 22:14:00,39.7,31.4,28.79,NNE,22,4.6,4.6,72,0.00,CLR,,0.00,WeatherDisplay:10.37,2013-03-16 03:14:00,
2013-03-15 22:15:00,39.7,31.4,28.79,NE,49,5.0,0.0,72,0.00,CLR,,0.00,WeatherDisplay:10.37,2013-03-16 03:15:00,
2013-03-15 22:17:00,39.7,31.1,28.79,ENE,68,5.8,5.8,71,0.00,CLR,,0.00,WeatherDisplay:10.37,2013-03-16 03:17:00,
2013-03-15 22:18:00,39.7,31.1,28.79,NNE,22,9.2,9.2,71,0.00,CLR,,0.00,WeatherDisplay:10.37,2013-03-16 03:18:00,
2013-03-15 22:19:00,39.7,31.1,28.79,NE,45,9.2,9.2,71,0.00,CLR,,0.00,WeatherDisplay:10.37,2013-03-16 03:19:00,
2013-03-15 22:21:00,39.6,30.9,28.79,NE,45,5.8,5.8,71,0.00,CLR,,0.00,WeatherDisplay:10.37,2013-03-16 03:21:00,
2013-03-15 22:23:00,39.6,30.9,28.79,NNE,22,8.1,8.1,71,0.00,CLR,,0.00,WeatherDisplay:10.37,2013-03-16 03:23:00,
2013-03-15 22:24:00,39.4,30.8,28.79,NE,45,5.8,5.8,71,0.00,CLR,,0.00,WeatherDisplay:10.37,2013-03-16 03:24:00,
2013-03-15 22:25:00,39.4,30.8,28.79,NNE,22,5.8,5.8,71,0.00,CLR,,0.00,WeatherDisplay:10.37,2013-03-16 03:25:00,
2013-03-15 22:28:00,39.2,30.2,28.79,ENE,68,6.2,6.2,70,0.00,CLR,,0.00,WeatherDisplay:10.37,2013-03-16 03:28:00,
2013-03-15 22:30:00,39.2,30.2,28.79,NE,42,6.0,0.0,70,0.00,CLR,,0.00,WeatherDisplay:10.37,2013-03-16 03:30:00,
2013-03-15 22:35:00,39.0,30.1,28.79,NNE,22,7.1,7.1,70,0.00,CLR,,0.00,WeatherDisplay:10.37,2013-03-16 03:35:00,
2013-03-15 22:36:00,39.0,30.1,28.79,NE,45,6.9,6.9,70,0.00,CLR,,0.00,WeatherDisplay:10.37,2013-03-16 03:36:00,
2013-03-15 22:40:00,38.7,30.1,28.79,NE,51,6.0,0.0,71,0.00,CLR,,0.00,WeatherDisplay:10.37,2013-03-16 03:40:00,
2013-03-15 22:41:00,38.7,30.1,28.79,ENE,68,6.0,6.0,71,0.00,CLR,,0.00,WeatherDisplay:10.37,2013-03-16 03:41:00,
2013-03-15 22:43:00,38.7,30.1,28.76,ENE,68,5.8,5.8,71,0.00,CLR,,0.00,WeatherDisplay:10.37,2013-03-16 03:43:00,
2013-03-15 22:45:00,38.6,30.0,28.76,NE,53,6.0,0.0,71,0.00,CLR,,0.00,WeatherDisplay:10.37,2013-03-16 03:45:00,
2013-03-15 22:47:00,38.5,29.9,28.76,ENE,68,5.8,5.8,71,0.00,CLR,,0.00,WeatherDisplay:10.37,2013-03-16 03:47:00,
2013-03-15 22:50:00,38.5,29.9,28.76,ENE,68,5.8,5.8,71,0.00,CLR,,0.00,WeatherDisplay:10.37,2013-03-16 03:50:00,
2013-03-15 22:52:00,38.3,29.7,28.76,NE,45,6.9,6.9,71,0.00,CLR,,0.00,WeatherDisplay:10.37,2013-03-16 03:52:00,
2013-03-15 22:53:00,38.3,29.7,28.76,NE,45,5.8,5.8,71,0.00,CLR,,0.00,WeatherDisplay:10.37,2013-03-16 03:53:00,
2013-03-15 22:55:00,38.3,29.7,28.76,NE,55,5.0,0.0,71,0.00,CLR,,0.00,WeatherDisplay:10.37,2013-03-16 03:55:00,
2013-03-15 22:57:00,38.1,29.5,28.76,ENE,68,8.1,8.1,71,0.00,CLR,,0.00,WeatherDisplay:10.37,2013-03-16 03:57:00,
2013-03-15 23:00:00,38.1,29.9,28.76,NE,50,7.0,0.0,72,0.00,CLR,,0.00,WeatherDisplay:10.37,2013-03-16 04:00:00,
2013-03-15 23:01:00,37.9,29.7,28.76,ENE,68,8.1,8.1,72,0.00,CLR,,0.00,WeatherDisplay:10.37,2013-03-16 04:01:00,
2013-03-15 23:04:00,37.9,29.7,28.76,NNE,22,8.1,8.1,72,0.00,CLR,,0.00,WeatherDisplay:10.37,2013-03-16 04:04:00,
2013-03-15 23:05:00,37.9,29.7,28.76,North,0,8.1,8.1,72,0.00,CLR,,0.00,WeatherDisplay:10.37,2013-03-16 04:05:00,
2013-03-15 23:06:00,37.9,29.7,28.76,North,0,5.8,5.8,72,0.00,CLR,,0.00,WeatherDisplay:10.37,2013-03-16 04:06:00,
2013-03-15 23:07:00,37.9,29.7,28.76,NE,45,6.4,6.4,72,0.00,CLR,,0.00,WeatherDisplay:10.37,2013-03-16 04:07:00,
2013-03-15 23:11:00,37.9,29.7,28.76,NNE,22,6.9,6.9,72,0.00,CLR,,0.00,WeatherDisplay:10.37,2013-03-16 04:11:00,
2013-03-15 23:12:00,37.9,29.7,28.79,ENE,68,6.0,6.0,72,0.00,CLR,,0.00,WeatherDisplay:10.37,2013-03-16 04:12:00,
2013-03-15 23:17:00,37.9,30.1,28.79,ENE,68,8.1,8.1,73,0.00,CLR,,0.00,WeatherDisplay:10.37,2013-03-16 04:17:00,
2013-03-15 23:18:00,37.9,30.1,28.79,ENE,68,5.8,5.8,73,0.00,CLR,,0.00,WeatherDisplay:10.37,2013-03-16 04:18:00,
2013-03-15 23:21:00,37.9,30.4,28.79,NE,45,6.9,6.9,74,0.00,CLR,,0.00,WeatherDisplay:10.37,2013-03-16 04:21:00,
2013-03-15 23:22:00,37.8,30.2,28.79,NNE,22,5.8,5.8,74,0.00,CLR,,0.00,WeatherDisplay:10.37,2013-03-16 04:22:00,
2013-03-15 23:24:00,37.8,30.2,28.79,ENE,68,6.0,6.0,74,0.00,CLR,,0.00,WeatherDisplay:10.37,2013-03-16 04:24:00,
2013-03-15 23:27:00,37.8,30.2,28.79,ENE,68,8.1,8.1,74,0.00,CLR,,0.00,WeatherDisplay:10.37,2013-03-16 04:27:00,
2013-03-15 23:28:00,37.8,30.2,28.79,NE,45,8.1,8.1,74,0.00,CLR,,0.00,WeatherDisplay:10.37,2013-03-16 04:28:00,
2013-03-15 23:29:00,37.8,30.2,28.79,ENE,68,6.9,6.9,74,0.00,CLR,,0.00,WeatherDisplay:10.37,2013-03-16 04:29:00,
2013-03-15 23:30:00,37.8,30.2,28.79,NE,48,6.0,0.0,74,0.00,CLR,,0.00,WeatherDisplay:10.37,2013-03-16 04:30:00,
2013-03-15 23:34:00,37.8,30.2,28.79,NNE,22,4.6,4.6,74,0.00,CLR,,0.00,WeatherDisplay:10.37,2013-03-16 04:34:00,
2013-03-15 23:35:00,37.8,30.2,28.79,NE,45,5.0,0.0,74,0.00,CLR,,0.00,WeatherDisplay:10.37,2013-03-16 04:35:00,
2013-03-15 23:36:00,37.8,30.2,28.79,NNE,22,8.1,8.1,74,0.00,CLR,,0.00,WeatherDisplay:10.37,2013-03-16 04:36:00,
2013-03-15 23:39:00,37.8,30.2,28.79,ENE,68,6.9,6.9,74,0.00,CLR,,0.00,WeatherDisplay:10.37,2013-03-16 04:39:00,
2013-03-15 23:40:00,37.8,30.2,28.79,ENE,68,6.9,6.9,74,0.00,CLR,,0.00,WeatherDisplay:10.37,2013-03-16 04:40:00,
2013-03-15 23:41:00,37.8,30.2,28.79,ENE,68,5.9,5.9,74,0.00,CLR,,0.00,WeatherDisplay:10.37,2013-03-16 04:41:00,
2013-03-15 23:43:00,37.6,30.4,28.76,NE,45,5.8,5.8,75,0.00,CLR,,0.00,WeatherDisplay:10.37,2013-03-16 04:43:00,
2013-03-15 23:44:00,37.6,30.4,28.76,ENE,68,5.8,5.8,75,0.00,CLR,,0.00,WeatherDisplay:10.37,2013-03-16 04:44:00,
2013-03-15 23:46:00,37.6,30.4,28.76,ENE,68,4.6,4.6,75,0.00,CLR,,0.00,WeatherDisplay:10.37,2013-03-16 04:46:00,
2013-03-15 23:47:00,37.6,30.4,28.76,East,90,5.8,5.8,75,0.00,CLR,,0.00,WeatherDisplay:10.37,2013-03-16 04:47:00,
2013-03-15 23:48:00,37.6,30.4,28.76,East,90,5.8,5.8,75,0.00,CLR,,0.00,WeatherDisplay:10.37,2013-03-16 04:48:00,
2013-03-15 23:49:00,37.6,30.4,28.76,ENE,68,5.9,5.9,75,0.00,CLR,,0.00,WeatherDisplay:10.37,2013-03-16 04:49:00,
2013-03-15 23:53:00,37.6,30.4,28.76,ENE,68,4.6,4.6,75,0.00,CLR,,0.00,WeatherDisplay:10.37,2013-03-16 04:53:00,
2013-03-15 23:54:00,37.6,30.4,28.76,ENE,68,4.6,4.6,75,0.00,CLR,,0.00,WeatherDisplay:10.37,2013-03-16 04:54:00,
2013-03-15 23:58:00,37.6,30.4,28.73,ENE,68,5.8,5.8,75,0.00,CLR,,0.00,WeatherDisplay:10.37,2013-03-16 04:58:00,
2013-03-15 23:59:00,37.6,30.4,28.73,NNE,22,4.6,4.6,75,0.00,CLR,,0.00,WeatherDisplay:10.37,2013-03-16 04:59:00,